﻿<?xml version="1.0" encoding="utf-8"?><gpx creator="Garmin Desktop App" version="1.1" xsi:schemaLocation="http://www.topografix.com/GPX/1/1 http://www.topografix.com/GPX/1/1/gpx.xsd http://www.garmin.com/xmlschemas/WaypointExtension/v1 http://www8.garmin.com/xmlschemas/WaypointExtensionv1.xsd http://www.garmin.com/xmlschemas/TrackPointExtension/v1 http://www.garmin.com/xmlschemas/TrackPointExtensionv1.xsd http://www.garmin.com/xmlschemas/GpxExtensions/v3 http://www8.garmin.com/xmlschemas/GpxExtensionsv3.xsd http://www.garmin.com/xmlschemas/ActivityExtension/v1 http://www8.garmin.com/xmlschemas/ActivityExtensionv1.xsd http://www.garmin.com/xmlschemas/AdventuresExtensions/v1 http://www8.garmin.com/xmlschemas/AdventuresExtensionv1.xsd http://www.garmin.com/xmlschemas/PressureExtension/v1 http://www.garmin.com/xmlschemas/PressureExtensionv1.xsd http://www.garmin.com/xmlschemas/TripExtensions/v1 http://www.garmin.com/xmlschemas/TripExtensionsv1.xsd http://www.garmin.com/xmlschemas/TripMetaDataExtensions/v1 http://www.garmin.com/xmlschemas/TripMetaDataExtensionsv1.xsd http://www.garmin.com/xmlschemas/ViaPointTransportationModeExtensions/v1 http://www.garmin.com/xmlschemas/ViaPointTransportationModeExtensionsv1.xsd http://www.garmin.com/xmlschemas/CreationTimeExtension/v1 http://www.garmin.com/xmlschemas/CreationTimeExtensionsv1.xsd http://www.garmin.com/xmlschemas/AccelerationExtension/v1 http://www.garmin.com/xmlschemas/AccelerationExtensionv1.xsd http://www.garmin.com/xmlschemas/PowerExtension/v1 http://www.garmin.com/xmlschemas/PowerExtensionv1.xsd http://www.garmin.com/xmlschemas/VideoExtension/v1 http://www.garmin.com/xmlschemas/VideoExtensionv1.xsd" xmlns="http://www.topografix.com/GPX/1/1" xmlns:xsi="http://www.w3.org/2001/XMLSchema-instance" xmlns:wptx1="http://www.garmin.com/xmlschemas/WaypointExtension/v1" xmlns:gpxtrx="http://www.garmin.com/xmlschemas/GpxExtensions/v3" xmlns:gpxtpx="http://www.garmin.com/xmlschemas/TrackPointExtension/v1" xmlns:gpxx="http://www.garmin.com/xmlschemas/GpxExtensions/v3" xmlns:trp="http://www.garmin.com/xmlschemas/TripExtensions/v1" xmlns:adv="http://www.garmin.com/xmlschemas/AdventuresExtensions/v1" xmlns:prs="http://www.garmin.com/xmlschemas/PressureExtension/v1" xmlns:tmd="http://www.garmin.com/xmlschemas/TripMetaDataExtensions/v1" xmlns:vptm="http://www.garmin.com/xmlschemas/ViaPointTransportationModeExtensions/v1" xmlns:ctx="http://www.garmin.com/xmlschemas/CreationTimeExtension/v1" xmlns:gpxacc="http://www.garmin.com/xmlschemas/AccelerationExtension/v1" xmlns:gpxpx="http://www.garmin.com/xmlschemas/PowerExtension/v1" xmlns:vidx1="http://www.garmin.com/xmlschemas/VideoExtension/v1">

  <metadata>
    <link href="http://www.garmin.com">
      <text>Garmin International</text>
    </link>
    <time>2024-11-25T06:49:29Z</time>
    <bounds maxlat="45.925622954964638" maxlon="9.239315120503306" minlat="45.912361778318882" minlon="9.208980426192284" />
  </metadata>

  <trk>
    <name>monte san primo2024-11-24</name>
    <extensions>
      <gpxx:TrackExtension>
        <gpxx:DisplayColor>Red</gpxx:DisplayColor>
      </gpxx:TrackExtension>
    </extensions>
    <trkseg>
      <trkpt lat="45.92325079254806" lon="9.230772284790874">
        <ele>1122.1600000000001</ele>
        <time>2024-11-24T08:26:49Z</time>
      </trkpt>
      <trkpt lat="45.923171248286963" lon="9.230826515704393">
        <ele>1121.8199999999999</ele>
        <time>2024-11-24T08:27:15Z</time>
      </trkpt>
      <trkpt lat="45.923097571358085" lon="9.230881836265326">
        <ele>1121.8399999999999</ele>
        <time>2024-11-24T08:27:36Z</time>
      </trkpt>
      <trkpt lat="45.922999503090978" lon="9.230863060802221">
        <ele>1123.05</ele>
        <time>2024-11-24T08:27:52Z</time>
      </trkpt>
      <trkpt lat="45.922922054305673" lon="9.230835987254977">
        <ele>1122.72</ele>
        <time>2024-11-24T08:28:21Z</time>
      </trkpt>
      <trkpt lat="45.922873103991151" lon="9.230911508202553">
        <ele>1125.1600000000001</ele>
        <time>2024-11-24T08:28:53Z</time>
      </trkpt>
      <trkpt lat="45.922796493396163" lon="9.230992728844285">
        <ele>1128.5799999999999</ele>
        <time>2024-11-24T08:29:23Z</time>
      </trkpt>
      <trkpt lat="45.922711919993162" lon="9.231075458228588">
        <ele>1131.51</ele>
        <time>2024-11-24T08:29:35Z</time>
      </trkpt>
      <trkpt lat="45.922618294134736" lon="9.231129521504045">
        <ele>1134.01</ele>
        <time>2024-11-24T08:29:50Z</time>
      </trkpt>
      <trkpt lat="45.922528775408864" lon="9.231173526495695">
        <ele>1136.79</ele>
        <time>2024-11-24T08:30:09Z</time>
      </trkpt>
      <trkpt lat="45.922425510361791" lon="9.231192972511053">
        <ele>1139.8699999999999</ele>
        <time>2024-11-24T08:30:35Z</time>
      </trkpt>
      <trkpt lat="45.922319563105702" lon="9.231222309172154">
        <ele>1142.6099999999999</ele>
        <time>2024-11-24T08:30:51Z</time>
      </trkpt>
      <trkpt lat="45.922223757952452" lon="9.231250807642937">
        <ele>1144.6400000000001</ele>
        <time>2024-11-24T08:31:06Z</time>
      </trkpt>
      <trkpt lat="45.922144632786512" lon="9.231322556734085">
        <ele>1146.8199999999999</ele>
        <time>2024-11-24T08:31:23Z</time>
      </trkpt>
      <trkpt lat="45.922071374952793" lon="9.231405118480325">
        <ele>1148.8299999999999</ele>
        <time>2024-11-24T08:31:40Z</time>
      </trkpt>
      <trkpt lat="45.921996524557471" lon="9.231488183140755">
        <ele>1150.49</ele>
        <time>2024-11-24T08:31:54Z</time>
      </trkpt>
      <trkpt lat="45.921923518180847" lon="9.231566051021218">
        <ele>1151.78</ele>
        <time>2024-11-24T08:32:07Z</time>
      </trkpt>
      <trkpt lat="45.921846907585859" lon="9.231663448736072">
        <ele>1154.3099999999999</ele>
        <time>2024-11-24T08:32:29Z</time>
      </trkpt>
      <trkpt lat="45.921770045533776" lon="9.231795379891992">
        <ele>1157.24</ele>
        <time>2024-11-24T08:32:53Z</time>
      </trkpt>
      <trkpt lat="45.921694105491042" lon="9.231922114267945">
        <ele>1159.6300000000001</ele>
        <time>2024-11-24T08:33:11Z</time>
      </trkpt>
      <trkpt lat="45.921623948961496" lon="9.232044070959091">
        <ele>1161.71</ele>
        <time>2024-11-24T08:33:30Z</time>
      </trkpt>
      <trkpt lat="45.921621350571513" lon="9.232171894982457">
        <ele>1164.1199999999999</ele>
        <time>2024-11-24T08:33:47Z</time>
      </trkpt>
      <trkpt lat="45.921624535694718" lon="9.232272645458579">
        <ele>1166.22</ele>
        <time>2024-11-24T08:34:05Z</time>
      </trkpt>
      <trkpt lat="45.921574076637626" lon="9.232388902455568">
        <ele>1167.47</ele>
        <time>2024-11-24T08:34:16Z</time>
      </trkpt>
      <trkpt lat="45.921567371115088" lon="9.232517899945378">
        <ele>1168.6199999999999</ele>
        <time>2024-11-24T08:34:29Z</time>
      </trkpt>
      <trkpt lat="45.921610286459327" lon="9.232633486390114">
        <ele>1169.5599999999999</ele>
        <time>2024-11-24T08:34:42Z</time>
      </trkpt>
      <trkpt lat="45.921669965609908" lon="9.232742786407471">
        <ele>1170.53</ele>
        <time>2024-11-24T08:34:57Z</time>
      </trkpt>
      <trkpt lat="45.921724364161491" lon="9.232847560197115">
        <ele>1171.78</ele>
        <time>2024-11-24T08:35:11Z</time>
      </trkpt>
      <trkpt lat="45.921784713864326" lon="9.232941688969731">
        <ele>1173.5599999999999</ele>
        <time>2024-11-24T08:35:25Z</time>
      </trkpt>
      <trkpt lat="45.921852188184857" lon="9.233031710609794">
        <ele>1175.1800000000001</ele>
        <time>2024-11-24T08:35:40Z</time>
      </trkpt>
      <trkpt lat="45.921919327229261" lon="9.233125587925315">
        <ele>1176.9100000000001</ele>
        <time>2024-11-24T08:35:56Z</time>
      </trkpt>
      <trkpt lat="45.921972384676337" lon="9.233242096379399">
        <ele>1178.5</ele>
        <time>2024-11-24T08:36:12Z</time>
      </trkpt>
      <trkpt lat="45.922015551477671" lon="9.233354749158025">
        <ele>1180.49</ele>
        <time>2024-11-24T08:36:30Z</time>
      </trkpt>
      <trkpt lat="45.922059388831258" lon="9.233465893194079">
        <ele>1183.3599999999999</ele>
        <time>2024-11-24T08:36:48Z</time>
      </trkpt>
      <trkpt lat="45.922056706622243" lon="9.233565302565694">
        <ele>1185.3</ele>
        <time>2024-11-24T08:37:53Z</time>
      </trkpt>
      <trkpt lat="45.922064082697034" lon="9.233573181554675">
        <ele>1185.1300000000001</ele>
        <time>2024-11-24T08:41:42Z</time>
      </trkpt>
      <trkpt lat="45.922072045505047" lon="9.23358365893364">
        <ele>1184.96</ele>
        <time>2024-11-24T08:44:55Z</time>
      </trkpt>
      <trkpt lat="45.922095347195864" lon="9.233724642544985">
        <ele>1186.8900000000001</ele>
        <time>2024-11-24T08:45:48Z</time>
      </trkpt>
      <trkpt lat="45.922158295288682" lon="9.233827153220773">
        <ele>1189.52</ele>
        <time>2024-11-24T08:46:03Z</time>
      </trkpt>
      <trkpt lat="45.92224320396781" lon="9.233864536508918">
        <ele>1192.3199999999999</ele>
        <time>2024-11-24T08:46:21Z</time>
      </trkpt>
      <trkpt lat="45.922327777370811" lon="9.233878953382373">
        <ele>1194.79</ele>
        <time>2024-11-24T08:46:43Z</time>
      </trkpt>
      <trkpt lat="45.922416290268302" lon="9.233913235366345">
        <ele>1196.9000000000001</ele>
        <time>2024-11-24T08:46:59Z</time>
      </trkpt>
      <trkpt lat="45.922448644414544" lon="9.234024966135621">
        <ele>1199.1500000000001</ele>
        <time>2024-11-24T08:47:16Z</time>
      </trkpt>
      <trkpt lat="45.922431461513042" lon="9.23417148180306">
        <ele>1202.6199999999999</ele>
        <time>2024-11-24T08:47:38Z</time>
      </trkpt>
      <trkpt lat="45.922386785969138" lon="9.234310872852802">
        <ele>1205.8099999999999</ele>
        <time>2024-11-24T08:47:57Z</time>
      </trkpt>
      <trkpt lat="45.922367088496685" lon="9.23444707877934">
        <ele>1208.9400000000001</ele>
        <time>2024-11-24T08:48:30Z</time>
      </trkpt>
      <trkpt lat="45.922345379367471" lon="9.234563503414393">
        <ele>1211.0899999999999</ele>
        <time>2024-11-24T08:49:03Z</time>
      </trkpt>
      <trkpt lat="45.922319730743766" lon="9.234704906120896">
        <ele>1214.78</ele>
        <time>2024-11-24T08:49:24Z</time>
      </trkpt>
      <trkpt lat="45.922288047149777" lon="9.234834322705865">
        <ele>1217.78</ele>
        <time>2024-11-24T08:49:42Z</time>
      </trkpt>
      <trkpt lat="45.92224127613008" lon="9.234945215284824">
        <ele>1220.5999999999999</ele>
        <time>2024-11-24T08:50:02Z</time>
      </trkpt>
      <trkpt lat="45.922210766002536" lon="9.235071195289493">
        <ele>1223.8800000000001</ele>
        <time>2024-11-24T08:50:35Z</time>
      </trkpt>
      <trkpt lat="45.922203557565808" lon="9.235206646844745">
        <ele>1228.03</ele>
        <time>2024-11-24T08:51:03Z</time>
      </trkpt>
      <trkpt lat="45.922280084341764" lon="9.235270181670785">
        <ele>1230.3</ele>
        <time>2024-11-24T08:51:18Z</time>
      </trkpt>
      <trkpt lat="45.92227891087532" lon="9.235343188047409">
        <ele>1231.8800000000001</ele>
        <time>2024-11-24T08:51:32Z</time>
      </trkpt>
      <trkpt lat="45.922189308330417" lon="9.235425079241395">
        <ele>1234.3800000000001</ele>
        <time>2024-11-24T08:51:51Z</time>
      </trkpt>
      <trkpt lat="45.922121666371822" lon="9.235516106709838">
        <ele>1237.21</ele>
        <time>2024-11-24T08:52:06Z</time>
      </trkpt>
      <trkpt lat="45.922036338597536" lon="9.235582910478115">
        <ele>1240.3099999999999</ele>
        <time>2024-11-24T08:52:24Z</time>
      </trkpt>
      <trkpt lat="45.921948160976171" lon="9.235603613778949">
        <ele>1242.6900000000001</ele>
        <time>2024-11-24T08:52:38Z</time>
      </trkpt>
      <trkpt lat="45.921863755211234" lon="9.235661700367928">
        <ele>1245.9100000000001</ele>
        <time>2024-11-24T08:52:53Z</time>
      </trkpt>
      <trkpt lat="45.921804495155811" lon="9.235763372853398">
        <ele>1250.23</ele>
        <time>2024-11-24T08:53:13Z</time>
      </trkpt>
      <trkpt lat="45.921749174594879" lon="9.235906200483441">
        <ele>1254</ele>
        <time>2024-11-24T08:53:33Z</time>
      </trkpt>
      <trkpt lat="45.921671306714416" lon="9.236051458865404">
        <ele>1257.1400000000001</ele>
        <time>2024-11-24T08:53:52Z</time>
      </trkpt>
      <trkpt lat="45.92161875218153" lon="9.236171320080757">
        <ele>1259.04</ele>
        <time>2024-11-24T08:54:09Z</time>
      </trkpt>
      <trkpt lat="45.921587403863668" lon="9.236326972022653">
        <ele>1261.71</ele>
        <time>2024-11-24T08:54:27Z</time>
      </trkpt>
      <trkpt lat="45.921542812138796" lon="9.236474828794599">
        <ele>1263.3699999999999</ele>
        <time>2024-11-24T08:54:47Z</time>
      </trkpt>
      <trkpt lat="45.921476259827614" lon="9.236598210409284">
        <ele>1265.4100000000001</ele>
        <time>2024-11-24T08:55:00Z</time>
      </trkpt>
      <trkpt lat="45.921356230974197" lon="9.236623272299767">
        <ele>1266.77</ele>
        <time>2024-11-24T08:55:14Z</time>
      </trkpt>
      <trkpt lat="45.921230586245656" lon="9.236689237877727">
        <ele>1268.6600000000001</ele>
        <time>2024-11-24T08:55:30Z</time>
      </trkpt>
      <trkpt lat="45.921070827171206" lon="9.23685553483665">
        <ele>1270.6900000000001</ele>
        <time>2024-11-24T08:55:50Z</time>
      </trkpt>
      <trkpt lat="45.92096253298223" lon="9.236943377181888">
        <ele>1271.8199999999999</ele>
        <time>2024-11-24T08:56:06Z</time>
      </trkpt>
      <trkpt lat="45.920838480815291" lon="9.237071117386222">
        <ele>1273.3599999999999</ele>
        <time>2024-11-24T08:56:21Z</time>
      </trkpt>
      <trkpt lat="45.920714847743511" lon="9.237187961116433">
        <ele>1274.6900000000001</ele>
        <time>2024-11-24T08:56:37Z</time>
      </trkpt>
      <trkpt lat="45.920596327632666" lon="9.237336236983538">
        <ele>1276.21</ele>
        <time>2024-11-24T08:56:54Z</time>
      </trkpt>
      <trkpt lat="45.920477639883757" lon="9.237504797056317">
        <ele>1278.3800000000001</ele>
        <time>2024-11-24T08:57:14Z</time>
      </trkpt>
      <trkpt lat="45.92038644477725" lon="9.237629268318415">
        <ele>1280.55</ele>
        <time>2024-11-24T08:57:35Z</time>
      </trkpt>
      <trkpt lat="45.920310337096453" lon="9.23771208152175">
        <ele>1282.8900000000001</ele>
        <time>2024-11-24T08:57:55Z</time>
      </trkpt>
      <trkpt lat="45.920223500579596" lon="9.237821968272328">
        <ele>1284.77</ele>
        <time>2024-11-24T08:58:12Z</time>
      </trkpt>
      <trkpt lat="45.920116128399968" lon="9.237887682393193">
        <ele>1287.78</ele>
        <time>2024-11-24T08:58:32Z</time>
      </trkpt>
      <trkpt lat="45.920025017112494" lon="9.237989773973823">
        <ele>1291.8399999999999</ele>
        <time>2024-11-24T08:58:50Z</time>
      </trkpt>
      <trkpt lat="45.919924853369594" lon="9.237994719296694">
        <ele>1294.1199999999999</ele>
        <time>2024-11-24T08:59:03Z</time>
      </trkpt>
      <trkpt lat="45.91980742290616" lon="9.237937889993191">
        <ele>1295.98</ele>
        <time>2024-11-24T08:59:20Z</time>
      </trkpt>
      <trkpt lat="45.91967842541635" lon="9.237944092601538">
        <ele>1297.99</ele>
        <time>2024-11-24T08:59:37Z</time>
      </trkpt>
      <trkpt lat="45.919569795951247" lon="9.237956497818232">
        <ele>1300.0799999999999</ele>
        <time>2024-11-24T08:59:55Z</time>
      </trkpt>
      <trkpt lat="45.919455802068114" lon="9.238018356263638">
        <ele>1302.5799999999999</ele>
        <time>2024-11-24T09:00:12Z</time>
      </trkpt>
      <trkpt lat="45.919345915317535" lon="9.238085160031915">
        <ele>1304.8399999999999</ele>
        <time>2024-11-24T09:00:30Z</time>
      </trkpt>
      <trkpt lat="45.919242985546589" lon="9.238174594938755">
        <ele>1307.46</ele>
        <time>2024-11-24T09:00:46Z</time>
      </trkpt>
      <trkpt lat="45.919240219518542" lon="9.238057918846607">
        <ele>1310.8299999999999</ele>
        <time>2024-11-24T09:01:04Z</time>
      </trkpt>
      <trkpt lat="45.919290510937572" lon="9.237918695434928">
        <ele>1312.29</ele>
        <time>2024-11-24T09:01:56Z</time>
      </trkpt>
      <trkpt lat="45.919287577271461" lon="9.237917438149452">
        <ele>1311.73</ele>
        <time>2024-11-24T09:04:00Z</time>
      </trkpt>
      <trkpt lat="45.919196885079145" lon="9.237929591909051">
        <ele>1312.53</ele>
        <time>2024-11-24T09:04:41Z</time>
      </trkpt>
      <trkpt lat="45.919096134603024" lon="9.237946355715394">
        <ele>1314.78</ele>
        <time>2024-11-24T09:04:54Z</time>
      </trkpt>
      <trkpt lat="45.918997311964631" lon="9.237986002117395">
        <ele>1317.4000000000001</ele>
        <time>2024-11-24T09:05:12Z</time>
      </trkpt>
      <trkpt lat="45.918911565095186" lon="9.238068731501699">
        <ele>1321.5799999999999</ele>
        <time>2024-11-24T09:05:41Z</time>
      </trkpt>
      <trkpt lat="45.918829338625073" lon="9.238161686807871">
        <ele>1324.51</ele>
        <time>2024-11-24T09:06:02Z</time>
      </trkpt>
      <trkpt lat="45.918768905103207" lon="9.238271322101355">
        <ele>1326.5599999999999</ele>
        <time>2024-11-24T09:06:19Z</time>
      </trkpt>
      <trkpt lat="45.918672094121575" lon="9.238334018737078">
        <ele>1328.97</ele>
        <time>2024-11-24T09:06:45Z</time>
      </trkpt>
      <trkpt lat="45.918588023632765" lon="9.238397218286991">
        <ele>1332.6500000000001</ele>
        <time>2024-11-24T09:07:14Z</time>
      </trkpt>
      <trkpt lat="45.918489536270499" lon="9.238457903265953">
        <ele>1336.3599999999999</ele>
        <time>2024-11-24T09:07:38Z</time>
      </trkpt>
      <trkpt lat="45.918384846299887" lon="9.238439965993166">
        <ele>1339.6099999999999</ele>
        <time>2024-11-24T09:08:03Z</time>
      </trkpt>
      <trkpt lat="45.918303960934281" lon="9.238519426435232">
        <ele>1341.8599999999999</ele>
        <time>2024-11-24T09:08:24Z</time>
      </trkpt>
      <trkpt lat="45.918222991749644" lon="9.238593187183142">
        <ele>1343.8299999999999</ele>
        <time>2024-11-24T09:08:42Z</time>
      </trkpt>
      <trkpt lat="45.918149817734957" lon="9.238654123619199">
        <ele>1345.8699999999999</ele>
        <time>2024-11-24T09:09:02Z</time>
      </trkpt>
      <trkpt lat="45.918059209361672" lon="9.238717323169112">
        <ele>1348.1700000000001</ele>
        <time>2024-11-24T09:09:24Z</time>
      </trkpt>
      <trkpt lat="45.917954351752996" lon="9.238763088360429">
        <ele>1350.97</ele>
        <time>2024-11-24T09:09:39Z</time>
      </trkpt>
      <trkpt lat="45.917845219373703" lon="9.238797873258591">
        <ele>1355.1099999999999</ele>
        <time>2024-11-24T09:09:56Z</time>
      </trkpt>
      <trkpt lat="45.917760143056512" lon="9.238878255710006">
        <ele>1358.3399999999999</ele>
        <time>2024-11-24T09:10:18Z</time>
      </trkpt>
      <trkpt lat="45.917654111981392" lon="9.238932570442557">
        <ele>1360.5</ele>
        <time>2024-11-24T09:10:36Z</time>
      </trkpt>
      <trkpt lat="45.917552690953016" lon="9.238958973437548">
        <ele>1362.4200000000001</ele>
        <time>2024-11-24T09:10:57Z</time>
      </trkpt>
      <trkpt lat="45.917457807809114" lon="9.239021418616176">
        <ele>1365.0799999999999</ele>
        <time>2024-11-24T09:11:19Z</time>
      </trkpt>
      <trkpt lat="45.917365690693259" lon="9.239054108038545">
        <ele>1368.75</ele>
        <time>2024-11-24T09:11:40Z</time>
      </trkpt>
      <trkpt lat="45.917276926338673" lon="9.239101968705654">
        <ele>1371.76</ele>
        <time>2024-11-24T09:11:56Z</time>
      </trkpt>
      <trkpt lat="45.917184473946691" lon="9.239152343943715">
        <ele>1375.6800000000001</ele>
        <time>2024-11-24T09:12:14Z</time>
      </trkpt>
      <trkpt lat="45.917089842259884" lon="9.239162402227521">
        <ele>1378.8099999999999</ele>
        <time>2024-11-24T09:12:30Z</time>
      </trkpt>
      <trkpt lat="45.917005352675915" lon="9.239197187125683">
        <ele>1382.3499999999999</ele>
        <time>2024-11-24T09:12:50Z</time>
      </trkpt>
      <trkpt lat="45.916912397369742" lon="9.239199701696634">
        <ele>1385.4000000000001</ele>
        <time>2024-11-24T09:13:12Z</time>
      </trkpt>
      <trkpt lat="45.916822627186775" lon="9.239221243187785">
        <ele>1388.78</ele>
        <time>2024-11-24T09:13:31Z</time>
      </trkpt>
      <trkpt lat="45.916739562526345" lon="9.239254016429186">
        <ele>1391.8800000000001</ele>
        <time>2024-11-24T09:13:50Z</time>
      </trkpt>
      <trkpt lat="45.916640320792794" lon="9.239240689203143">
        <ele>1394.49</ele>
        <time>2024-11-24T09:14:07Z</time>
      </trkpt>
      <trkpt lat="45.916543258354068" lon="9.239247897639871">
        <ele>1397.45</ele>
        <time>2024-11-24T09:14:23Z</time>
      </trkpt>
      <trkpt lat="45.91644611209631" lon="9.239284442737699">
        <ele>1400.5899999999999</ele>
        <time>2024-11-24T09:14:42Z</time>
      </trkpt>
      <trkpt lat="45.916342930868268" lon="9.239275390282273">
        <ele>1403.4300000000001</ele>
        <time>2024-11-24T09:15:01Z</time>
      </trkpt>
      <trkpt lat="45.916229942813516" lon="9.239300703629851">
        <ele>1404.8399999999999</ele>
        <time>2024-11-24T09:15:15Z</time>
      </trkpt>
      <trkpt lat="45.916121983900666" lon="9.239315120503306">
        <ele>1406.8199999999999</ele>
        <time>2024-11-24T09:15:30Z</time>
      </trkpt>
      <trkpt lat="45.916022658348083" lon="9.239295506849885">
        <ele>1408.3699999999999</ele>
        <time>2024-11-24T09:15:44Z</time>
      </trkpt>
      <trkpt lat="45.915920147672296" lon="9.239260135218501">
        <ele>1409.6099999999999</ele>
        <time>2024-11-24T09:15:57Z</time>
      </trkpt>
      <trkpt lat="45.915810847654939" lon="9.239231217652559">
        <ele>1411</ele>
        <time>2024-11-24T09:16:10Z</time>
      </trkpt>
      <trkpt lat="45.915713952854276" lon="9.239168269559741">
        <ele>1412.0999999999999</ele>
        <time>2024-11-24T09:16:22Z</time>
      </trkpt>
      <trkpt lat="45.915622003376484" lon="9.239114038646221">
        <ele>1413.46</ele>
        <time>2024-11-24T09:16:33Z</time>
      </trkpt>
      <trkpt lat="45.915537429973483" lon="9.239039020612836">
        <ele>1414.6400000000001</ele>
        <time>2024-11-24T09:16:45Z</time>
      </trkpt>
      <trkpt lat="45.915458304807544" lon="9.238953860476613">
        <ele>1415.6500000000001</ele>
        <time>2024-11-24T09:16:56Z</time>
      </trkpt>
      <trkpt lat="45.915380604565144" lon="9.238872053101659">
        <ele>1417.1500000000001</ele>
        <time>2024-11-24T09:17:09Z</time>
      </trkpt>
      <trkpt lat="45.915313297882676" lon="9.238777756690979">
        <ele>1418.96</ele>
        <time>2024-11-24T09:17:21Z</time>
      </trkpt>
      <trkpt lat="45.915238363668323" lon="9.238682286813855">
        <ele>1420.78</ele>
        <time>2024-11-24T09:17:35Z</time>
      </trkpt>
      <trkpt lat="45.915166111662984" lon="9.238589918240905">
        <ele>1422.75</ele>
        <time>2024-11-24T09:17:50Z</time>
      </trkpt>
      <trkpt lat="45.915100397542119" lon="9.238488161936402">
        <ele>1424.6099999999999</ele>
        <time>2024-11-24T09:18:07Z</time>
      </trkpt>
      <trkpt lat="45.915047340095043" lon="9.238376263529062">
        <ele>1425.53</ele>
        <time>2024-11-24T09:18:21Z</time>
      </trkpt>
      <trkpt lat="45.914983469992876" lon="9.238278111442924">
        <ele>1427.22</ele>
        <time>2024-11-24T09:18:36Z</time>
      </trkpt>
      <trkpt lat="45.914913816377521" lon="9.238186748698354">
        <ele>1429.1900000000001</ele>
        <time>2024-11-24T09:18:50Z</time>
      </trkpt>
      <trkpt lat="45.914850700646639" lon="9.238083818927407">
        <ele>1431.1099999999999</ele>
        <time>2024-11-24T09:19:03Z</time>
      </trkpt>
      <trkpt lat="45.914765875786543" lon="9.238014332950115">
        <ele>1433.1900000000001</ele>
        <time>2024-11-24T09:19:17Z</time>
      </trkpt>
      <trkpt lat="45.914709717035294" lon="9.237911822274327">
        <ele>1434.54</ele>
        <time>2024-11-24T09:19:29Z</time>
      </trkpt>
      <trkpt lat="45.914642242714763" lon="9.237824566662312">
        <ele>1435.8099999999999</ele>
        <time>2024-11-24T09:19:40Z</time>
      </trkpt>
      <trkpt lat="45.914593376219273" lon="9.237703196704388">
        <ele>1436.95</ele>
        <time>2024-11-24T09:19:51Z</time>
      </trkpt>
      <trkpt lat="45.914587257429957" lon="9.237685510888696">
        <ele>1437.22</ele>
        <time>2024-11-24T09:20:14Z</time>
      </trkpt>
      <trkpt lat="45.914603266865015" lon="9.237685091793537">
        <ele>1436.8199999999999</ele>
        <time>2024-11-24T09:23:10Z</time>
      </trkpt>
      <trkpt lat="45.914563871920109" lon="9.237562380731106">
        <ele>1436.6300000000001</ele>
        <time>2024-11-24T09:23:41Z</time>
      </trkpt>
      <trkpt lat="45.9145194478333" lon="9.23743455670774">
        <ele>1436.6700000000001</ele>
        <time>2024-11-24T09:23:51Z</time>
      </trkpt>
      <trkpt lat="45.914490194991231" lon="9.237295500934124">
        <ele>1436.8900000000001</ele>
        <time>2024-11-24T09:24:00Z</time>
      </trkpt>
      <trkpt lat="45.91447644867003" lon="9.237161558121443">
        <ele>1436.5</ele>
        <time>2024-11-24T09:24:08Z</time>
      </trkpt>
      <trkpt lat="45.91443638317287" lon="9.237024514004588">
        <ele>1436.24</ele>
        <time>2024-11-24T09:24:16Z</time>
      </trkpt>
      <trkpt lat="45.91439045034349" lon="9.236901635304093">
        <ele>1436.5599999999999</ele>
        <time>2024-11-24T09:24:24Z</time>
      </trkpt>
      <trkpt lat="45.91436455026269" lon="9.236782277002931">
        <ele>1435.26</ele>
        <time>2024-11-24T09:24:31Z</time>
      </trkpt>
      <trkpt lat="45.914330268278718" lon="9.236651016399264">
        <ele>1434.22</ele>
        <time>2024-11-24T09:24:38Z</time>
      </trkpt>
      <trkpt lat="45.914296740666032" lon="9.236521599814296">
        <ele>1433.6500000000001</ele>
        <time>2024-11-24T09:24:46Z</time>
      </trkpt>
      <trkpt lat="45.914277043193579" lon="9.236394865438342">
        <ele>1433.04</ele>
        <time>2024-11-24T09:24:54Z</time>
      </trkpt>
      <trkpt lat="45.914265559986234" lon="9.236261760815978">
        <ele>1432.1500000000001</ele>
        <time>2024-11-24T09:25:02Z</time>
      </trkpt>
      <trkpt lat="45.914234463125467" lon="9.236135361716151">
        <ele>1431.5699999999999</ele>
        <time>2024-11-24T09:25:11Z</time>
      </trkpt>
      <trkpt lat="45.914201522246003" lon="9.236081466078758">
        <ele>1432.0999999999999</ele>
        <time>2024-11-24T09:25:24Z</time>
      </trkpt>
      <trkpt lat="45.914198588579893" lon="9.235948445275426">
        <ele>1432.4300000000001</ele>
        <time>2024-11-24T09:25:33Z</time>
      </trkpt>
      <trkpt lat="45.914193391799927" lon="9.235819112509489">
        <ele>1433.1700000000001</ele>
        <time>2024-11-24T09:25:42Z</time>
      </trkpt>
      <trkpt lat="45.914181573316455" lon="9.23567938618362">
        <ele>1434.03</ele>
        <time>2024-11-24T09:25:51Z</time>
      </trkpt>
      <trkpt lat="45.9141705930233" lon="9.235537815839052">
        <ele>1434.6500000000001</ele>
        <time>2024-11-24T09:26:00Z</time>
      </trkpt>
      <trkpt lat="45.914163133129478" lon="9.235399598255754">
        <ele>1435.6800000000001</ele>
        <time>2024-11-24T09:26:09Z</time>
      </trkpt>
      <trkpt lat="45.914154415950179" lon="9.235257692635059">
        <ele>1437.1500000000001</ele>
        <time>2024-11-24T09:26:19Z</time>
      </trkpt>
      <trkpt lat="45.914140418171883" lon="9.235128527507186">
        <ele>1438.55</ele>
        <time>2024-11-24T09:26:29Z</time>
      </trkpt>
      <trkpt lat="45.914119714871049" lon="9.234990142285824">
        <ele>1440.1600000000001</ele>
        <time>2024-11-24T09:26:40Z</time>
      </trkpt>
      <trkpt lat="45.914102699607611" lon="9.234864832833409">
        <ele>1441.97</ele>
        <time>2024-11-24T09:26:54Z</time>
      </trkpt>
      <trkpt lat="45.914084762334824" lon="9.234736673533917">
        <ele>1444.3199999999999</ele>
        <time>2024-11-24T09:27:07Z</time>
      </trkpt>
      <trkpt lat="45.914095742627978" lon="9.234603988006711">
        <ele>1446.76</ele>
        <time>2024-11-24T09:27:22Z</time>
      </trkpt>
      <trkpt lat="45.914070010185242" lon="9.234476918354631">
        <ele>1449.8</ele>
        <time>2024-11-24T09:27:38Z</time>
      </trkpt>
      <trkpt lat="45.914086103439331" lon="9.234353536739945">
        <ele>1452.5699999999999</ele>
        <time>2024-11-24T09:27:53Z</time>
      </trkpt>
      <trkpt lat="45.914067579433322" lon="9.234232418239117">
        <ele>1455.6500000000001</ele>
        <time>2024-11-24T09:28:09Z</time>
      </trkpt>
      <trkpt lat="45.91407579369843" lon="9.234107276424766">
        <ele>1458.79</ele>
        <time>2024-11-24T09:28:26Z</time>
      </trkpt>
      <trkpt lat="45.914054922759533" lon="9.233986996114254">
        <ele>1462.21</ele>
        <time>2024-11-24T09:28:44Z</time>
      </trkpt>
      <trkpt lat="45.914070261642337" lon="9.233867302536964">
        <ele>1465.6400000000001</ele>
        <time>2024-11-24T09:29:03Z</time>
      </trkpt>
      <trkpt lat="45.914071183651686" lon="9.233737383037806">
        <ele>1469.0599999999999</ele>
        <time>2024-11-24T09:29:19Z</time>
      </trkpt>
      <trkpt lat="45.914054000750184" lon="9.233611654490233">
        <ele>1471.9200000000001</ele>
        <time>2024-11-24T09:29:40Z</time>
      </trkpt>
      <trkpt lat="45.913970097899437" lon="9.233534121885896">
        <ele>1475.49</ele>
        <time>2024-11-24T09:29:58Z</time>
      </trkpt>
      <trkpt lat="45.913925003260374" lon="9.233449967578054">
        <ele>1478.1700000000001</ele>
        <time>2024-11-24T09:30:13Z</time>
      </trkpt>
      <trkpt lat="45.914017707109451" lon="9.233374614268541">
        <ele>1480.5999999999999</ele>
        <time>2024-11-24T09:30:28Z</time>
      </trkpt>
      <trkpt lat="45.914009576663375" lon="9.233268331736326">
        <ele>1483.4100000000001</ele>
        <time>2024-11-24T09:30:45Z</time>
      </trkpt>
      <trkpt lat="45.913928775116801" lon="9.233193229883909">
        <ele>1487.3599999999999</ele>
        <time>2024-11-24T09:31:05Z</time>
      </trkpt>
      <trkpt lat="45.913862390443683" lon="9.233096335083246">
        <ele>1489.3299999999999</ele>
        <time>2024-11-24T09:31:19Z</time>
      </trkpt>
      <trkpt lat="45.91378360055387" lon="9.233006145805121">
        <ele>1492.79</ele>
        <time>2024-11-24T09:31:41Z</time>
      </trkpt>
      <trkpt lat="45.913726855069399" lon="9.232909502461553">
        <ele>1496.6400000000001</ele>
        <time>2024-11-24T09:32:02Z</time>
      </trkpt>
      <trkpt lat="45.913648148998618" lon="9.232810931280255">
        <ele>1499.23</ele>
        <time>2024-11-24T09:32:20Z</time>
      </trkpt>
      <trkpt lat="45.913606658577919" lon="9.232688806951046">
        <ele>1501.77</ele>
        <time>2024-11-24T09:32:35Z</time>
      </trkpt>
      <trkpt lat="45.913565000519156" lon="9.232568526640534">
        <ele>1504.03</ele>
        <time>2024-11-24T09:32:49Z</time>
      </trkpt>
      <trkpt lat="45.913495849817991" lon="9.232469201087952">
        <ele>1506.4000000000001</ele>
        <time>2024-11-24T09:33:02Z</time>
      </trkpt>
      <trkpt lat="45.913468943908811" lon="9.232346322387457">
        <ele>1509.1400000000001</ele>
        <time>2024-11-24T09:33:16Z</time>
      </trkpt>
      <trkpt lat="45.913435164839029" lon="9.232221096754074">
        <ele>1510.5899999999999</ele>
        <time>2024-11-24T09:33:30Z</time>
      </trkpt>
      <trkpt lat="45.913363751024008" lon="9.232128141447902">
        <ele>1511.72</ele>
        <time>2024-11-24T09:33:42Z</time>
      </trkpt>
      <trkpt lat="45.913285631686449" lon="9.23204549588263">
        <ele>1512.9000000000001</ele>
        <time>2024-11-24T09:33:52Z</time>
      </trkpt>
      <trkpt lat="45.913215391337872" lon="9.23194776289165">
        <ele>1514.5699999999999</ele>
        <time>2024-11-24T09:34:03Z</time>
      </trkpt>
      <trkpt lat="45.913136098533869" lon="9.231871655210853">
        <ele>1516.4300000000001</ele>
        <time>2024-11-24T09:34:15Z</time>
      </trkpt>
      <trkpt lat="45.91306384652853" lon="9.231786075979471">
        <ele>1518.73</ele>
        <time>2024-11-24T09:34:28Z</time>
      </trkpt>
      <trkpt lat="45.91298371553421" lon="9.231720445677638">
        <ele>1520.6800000000001</ele>
        <time>2024-11-24T09:34:40Z</time>
      </trkpt>
      <trkpt lat="45.912922527641058" lon="9.23161843791604">
        <ele>1523.71</ele>
        <time>2024-11-24T09:34:55Z</time>
      </trkpt>
      <trkpt lat="45.912885814905167" lon="9.231495140120387">
        <ele>1527.77</ele>
        <time>2024-11-24T09:35:13Z</time>
      </trkpt>
      <trkpt lat="45.912853209301829" lon="9.231388354673982">
        <ele>1531.1099999999999</ele>
        <time>2024-11-24T09:35:30Z</time>
      </trkpt>
      <trkpt lat="45.912877265363932" lon="9.231283245608211">
        <ele>1534.25</ele>
        <time>2024-11-24T09:35:45Z</time>
      </trkpt>
      <trkpt lat="45.912919510155916" lon="9.231165396049619">
        <ele>1535.5699999999999</ele>
        <time>2024-11-24T09:36:19Z</time>
      </trkpt>
      <trkpt lat="45.912939542904496" lon="9.231032794341445">
        <ele>1534.74</ele>
        <time>2024-11-24T09:36:29Z</time>
      </trkpt>
      <trkpt lat="45.912968292832375" lon="9.230899270623922">
        <ele>1533.05</ele>
        <time>2024-11-24T09:36:37Z</time>
      </trkpt>
      <trkpt lat="45.912979524582624" lon="9.23075501807034">
        <ele>1532.54</ele>
        <time>2024-11-24T09:36:45Z</time>
      </trkpt>
      <trkpt lat="45.912995785474777" lon="9.230620237067342">
        <ele>1533.76</ele>
        <time>2024-11-24T09:36:53Z</time>
      </trkpt>
      <trkpt lat="45.913018248975277" lon="9.230493837967515">
        <ele>1533.4100000000001</ele>
        <time>2024-11-24T09:37:00Z</time>
      </trkpt>
      <trkpt lat="45.913034761324525" lon="9.230371126905084">
        <ele>1532.5899999999999</ele>
        <time>2024-11-24T09:37:07Z</time>
      </trkpt>
      <trkpt lat="45.913051189854741" lon="9.23024782910943">
        <ele>1532.27</ele>
        <time>2024-11-24T09:37:14Z</time>
      </trkpt>
      <trkpt lat="45.91306141577661" lon="9.230099553242326">
        <ele>1533.0999999999999</ele>
        <time>2024-11-24T09:37:22Z</time>
      </trkpt>
      <trkpt lat="45.913076922297478" lon="9.229961251839995">
        <ele>1533.9300000000001</ele>
        <time>2024-11-24T09:37:30Z</time>
      </trkpt>
      <trkpt lat="45.91309561394155" lon="9.229825716465712">
        <ele>1534.71</ele>
        <time>2024-11-24T09:37:38Z</time>
      </trkpt>
      <trkpt lat="45.913118664175272" lon="9.229695377871394">
        <ele>1535.99</ele>
        <time>2024-11-24T09:37:46Z</time>
      </trkpt>
      <trkpt lat="45.913117490708828" lon="9.229557998478413">
        <ele>1538.1199999999999</ele>
        <time>2024-11-24T09:37:55Z</time>
      </trkpt>
      <trkpt lat="45.913144899532199" lon="9.229428414255381">
        <ele>1540.21</ele>
        <time>2024-11-24T09:38:05Z</time>
      </trkpt>
      <trkpt lat="45.913163004443049" lon="9.22930377535522">
        <ele>1541.9400000000001</ele>
        <time>2024-11-24T09:38:15Z</time>
      </trkpt>
      <trkpt lat="45.913151856511831" lon="9.229180226102471">
        <ele>1544.24</ele>
        <time>2024-11-24T09:38:26Z</time>
      </trkpt>
      <trkpt lat="45.913143139332533" lon="9.22904527746141">
        <ele>1546.1500000000001</ele>
        <time>2024-11-24T09:38:37Z</time>
      </trkpt>
      <trkpt lat="45.913138948380947" lon="9.228915190324187">
        <ele>1547.8599999999999</ele>
        <time>2024-11-24T09:38:48Z</time>
      </trkpt>
      <trkpt lat="45.913144899532199" lon="9.228794742375612">
        <ele>1550.0999999999999</ele>
        <time>2024-11-24T09:39:12Z</time>
      </trkpt>
      <trkpt lat="45.913139367476106" lon="9.228658704087138">
        <ele>1552.3199999999999</ele>
        <time>2024-11-24T09:39:24Z</time>
      </trkpt>
      <trkpt lat="45.913144731894135" lon="9.228526772931218">
        <ele>1554.1900000000001</ele>
        <time>2024-11-24T09:39:36Z</time>
      </trkpt>
      <trkpt lat="45.913143809884787" lon="9.228396434336901">
        <ele>1557.6600000000001</ele>
        <time>2024-11-24T09:39:49Z</time>
      </trkpt>
      <trkpt lat="45.913141379132867" lon="9.228270202875137">
        <ele>1560.5599999999999</ele>
        <time>2024-11-24T09:40:02Z</time>
      </trkpt>
      <trkpt lat="45.913175493478775" lon="9.228136343881488">
        <ele>1561.45</ele>
        <time>2024-11-24T09:40:12Z</time>
      </trkpt>
      <trkpt lat="45.913198292255402" lon="9.228011956438422">
        <ele>1561.6199999999999</ele>
        <time>2024-11-24T09:40:21Z</time>
      </trkpt>
      <trkpt lat="45.913226874545217" lon="9.22786527313292">
        <ele>1561.74</ele>
        <time>2024-11-24T09:40:30Z</time>
      </trkpt>
      <trkpt lat="45.913232071325183" lon="9.227730995044112">
        <ele>1561.26</ele>
        <time>2024-11-24T09:40:38Z</time>
      </trkpt>
      <trkpt lat="45.913227377459407" lon="9.227598896250129">
        <ele>1561.0699999999999</ele>
        <time>2024-11-24T09:40:46Z</time>
      </trkpt>
      <trkpt lat="45.913227796554565" lon="9.227466629818082">
        <ele>1560.8399999999999</ele>
        <time>2024-11-24T09:40:55Z</time>
      </trkpt>
      <trkpt lat="45.91323341242969" lon="9.227327490225434">
        <ele>1561.2</ele>
        <time>2024-11-24T09:41:04Z</time>
      </trkpt>
      <trkpt lat="45.913208182901144" lon="9.227195894345641">
        <ele>1560.5999999999999</ele>
        <time>2024-11-24T09:41:12Z</time>
      </trkpt>
      <trkpt lat="45.913190580904484" lon="9.227066226303577">
        <ele>1559.5799999999999</ele>
        <time>2024-11-24T09:41:19Z</time>
      </trkpt>
      <trkpt lat="45.913160489872098" lon="9.226944437250495">
        <ele>1559.23</ele>
        <time>2024-11-24T09:41:26Z</time>
      </trkpt>
      <trkpt lat="45.913145067170262" lon="9.226809740066528">
        <ele>1559.8599999999999</ele>
        <time>2024-11-24T09:41:34Z</time>
      </trkpt>
      <trkpt lat="45.913139451295137" lon="9.226666074246168">
        <ele>1560.3399999999999</ele>
        <time>2024-11-24T09:41:43Z</time>
      </trkpt>
      <trkpt lat="45.913118831813335" lon="9.226529952138662">
        <ele>1560.98</ele>
        <time>2024-11-24T09:41:51Z</time>
      </trkpt>
      <trkpt lat="45.913099134340882" lon="9.226394249126315">
        <ele>1562.6300000000001</ele>
        <time>2024-11-24T09:42:00Z</time>
      </trkpt>
      <trkpt lat="45.913085304200649" lon="9.226257037371397">
        <ele>1565.1800000000001</ele>
        <time>2024-11-24T09:42:10Z</time>
      </trkpt>
      <trkpt lat="45.913056302815676" lon="9.226129380986095">
        <ele>1567.0899999999999</ele>
        <time>2024-11-24T09:42:20Z</time>
      </trkpt>
      <trkpt lat="45.913025960326195" lon="9.226009687408805">
        <ele>1568.45</ele>
        <time>2024-11-24T09:42:29Z</time>
      </trkpt>
      <trkpt lat="45.912971645593643" lon="9.225900722667575">
        <ele>1569.9100000000001</ele>
        <time>2024-11-24T09:42:39Z</time>
      </trkpt>
      <trkpt lat="45.912925377488136" lon="9.225787483155727">
        <ele>1571.3699999999999</ele>
        <time>2024-11-24T09:42:49Z</time>
      </trkpt>
      <trkpt lat="45.912890005856752" lon="9.225663095712662">
        <ele>1573.04</ele>
        <time>2024-11-24T09:43:00Z</time>
      </trkpt>
      <trkpt lat="45.912835523486137" lon="9.225555136799812">
        <ele>1575</ele>
        <time>2024-11-24T09:43:11Z</time>
      </trkpt>
      <trkpt lat="45.912809958681464" lon="9.225431587547064">
        <ele>1578.6099999999999</ele>
        <time>2024-11-24T09:43:27Z</time>
      </trkpt>
      <trkpt lat="45.912763942033052" lon="9.225332848727703">
        <ele>1581.6199999999999</ele>
        <time>2024-11-24T09:43:43Z</time>
      </trkpt>
      <trkpt lat="45.912749608978629" lon="9.225202929228544">
        <ele>1585.3299999999999</ele>
        <time>2024-11-24T09:43:59Z</time>
      </trkpt>
      <trkpt lat="45.912712477147579" lon="9.225082732737064">
        <ele>1588.1800000000001</ele>
        <time>2024-11-24T09:44:14Z</time>
      </trkpt>
      <trkpt lat="45.912706274539232" lon="9.224964380264282">
        <ele>1589.95</ele>
        <time>2024-11-24T09:44:27Z</time>
      </trkpt>
      <trkpt lat="45.912715326994658" lon="9.224824821576476">
        <ele>1591.78</ele>
        <time>2024-11-24T09:44:40Z</time>
      </trkpt>
      <trkpt lat="45.91271448880434" lon="9.224695488810539">
        <ele>1593.4300000000001</ele>
        <time>2024-11-24T09:44:52Z</time>
      </trkpt>
      <trkpt lat="45.912731504067779" lon="9.224563473835588">
        <ele>1595.72</ele>
        <time>2024-11-24T09:45:05Z</time>
      </trkpt>
      <trkpt lat="45.912735443562269" lon="9.2244384996593">
        <ele>1597.8399999999999</ele>
        <time>2024-11-24T09:45:16Z</time>
      </trkpt>
      <trkpt lat="45.91273695230484" lon="9.224310927093029">
        <ele>1600</ele>
        <time>2024-11-24T09:45:28Z</time>
      </trkpt>
      <trkpt lat="45.912730833515525" lon="9.224191401153803">
        <ele>1602.6099999999999</ele>
        <time>2024-11-24T09:45:42Z</time>
      </trkpt>
      <trkpt lat="45.912739718332887" lon="9.224063325673342">
        <ele>1605.3199999999999</ele>
        <time>2024-11-24T09:45:56Z</time>
      </trkpt>
      <trkpt lat="45.912742735818028" lon="9.223932735621929">
        <ele>1608.5</ele>
        <time>2024-11-24T09:46:14Z</time>
      </trkpt>
      <trkpt lat="45.912744663655758" lon="9.223804660141468">
        <ele>1611.5699999999999</ele>
        <time>2024-11-24T09:46:29Z</time>
      </trkpt>
      <trkpt lat="45.912717254832387" lon="9.223671220242977">
        <ele>1611.78</ele>
        <time>2024-11-24T09:47:02Z</time>
      </trkpt>
      <trkpt lat="45.912658581510186" lon="9.223577762022615">
        <ele>1609.7</ele>
        <time>2024-11-24T09:47:12Z</time>
      </trkpt>
      <trkpt lat="45.912610637024045" lon="9.223457062616944">
        <ele>1609.51</ele>
        <time>2024-11-24T09:47:35Z</time>
      </trkpt>
      <trkpt lat="45.912574846297503" lon="9.223323706537485">
        <ele>1609.27</ele>
        <time>2024-11-24T09:47:43Z</time>
      </trkpt>
      <trkpt lat="45.9125214535743" lon="9.223206862807274">
        <ele>1609.54</ele>
        <time>2024-11-24T09:47:52Z</time>
      </trkpt>
      <trkpt lat="45.912463199347258" lon="9.22309186309576">
        <ele>1610.8099999999999</ele>
        <time>2024-11-24T09:48:00Z</time>
      </trkpt>
      <trkpt lat="45.912454398348927" lon="9.222944090142846">
        <ele>1610.04</ele>
        <time>2024-11-24T09:48:07Z</time>
      </trkpt>
      <trkpt lat="45.912448531016707" lon="9.222803441807628">
        <ele>1608.1300000000001</ele>
        <time>2024-11-24T09:48:14Z</time>
      </trkpt>
      <trkpt lat="45.912428246811032" lon="9.222673187032342">
        <ele>1605.8</ele>
        <time>2024-11-24T09:48:21Z</time>
      </trkpt>
      <trkpt lat="45.912416763603687" lon="9.222529353573918">
        <ele>1603.22</ele>
        <time>2024-11-24T09:48:27Z</time>
      </trkpt>
      <trkpt lat="45.912404861301184" lon="9.222401781007648">
        <ele>1602.6300000000001</ele>
        <time>2024-11-24T09:48:33Z</time>
      </trkpt>
      <trkpt lat="45.912406789138913" lon="9.222262389957905">
        <ele>1602.6900000000001</ele>
        <time>2024-11-24T09:48:40Z</time>
      </trkpt>
      <trkpt lat="45.91241198591888" lon="9.22212190926075">
        <ele>1602.03</ele>
        <time>2024-11-24T09:48:47Z</time>
      </trkpt>
      <trkpt lat="45.91240955516696" lon="9.221985200420022">
        <ele>1601.29</ele>
        <time>2024-11-24T09:48:54Z</time>
      </trkpt>
      <trkpt lat="45.912405448034406" lon="9.221848575398326">
        <ele>1601.6099999999999</ele>
        <time>2024-11-24T09:49:01Z</time>
      </trkpt>
      <trkpt lat="45.91240419074893" lon="9.221705663949251">
        <ele>1602.5799999999999</ele>
        <time>2024-11-24T09:49:09Z</time>
      </trkpt>
      <trkpt lat="45.912401843816042" lon="9.221578929573298">
        <ele>1602.3299999999999</ele>
        <time>2024-11-24T09:49:16Z</time>
      </trkpt>
      <trkpt lat="45.912403939291835" lon="9.221452614292502">
        <ele>1602.9400000000001</ele>
        <time>2024-11-24T09:49:23Z</time>
      </trkpt>
      <trkpt lat="45.912423804402351" lon="9.221316408365965">
        <ele>1605.26</ele>
        <time>2024-11-24T09:49:32Z</time>
      </trkpt>
      <trkpt lat="45.912400921806693" lon="9.221187997609377">
        <ele>1607.1300000000001</ele>
        <time>2024-11-24T09:49:41Z</time>
      </trkpt>
      <trkpt lat="45.912361778318882" lon="9.221082217991352">
        <ele>1609.6700000000001</ele>
        <time>2024-11-24T09:49:52Z</time>
      </trkpt>
      <trkpt lat="45.9123694896698" lon="9.220945257693529">
        <ele>1612.3699999999999</ele>
        <time>2024-11-24T09:50:05Z</time>
      </trkpt>
      <trkpt lat="45.912391198799014" lon="9.220820954069495">
        <ele>1612.5799999999999</ele>
        <time>2024-11-24T09:50:14Z</time>
      </trkpt>
      <trkpt lat="45.912453895434737" lon="9.220708720386028">
        <ele>1610.5999999999999</ele>
        <time>2024-11-24T09:50:23Z</time>
      </trkpt>
      <trkpt lat="45.912508713081479" lon="9.220594977959991">
        <ele>1607.9000000000001</ele>
        <time>2024-11-24T09:50:32Z</time>
      </trkpt>
      <trkpt lat="45.912562357261777" lon="9.220476960763335">
        <ele>1606.1099999999999</ele>
        <time>2024-11-24T09:50:40Z</time>
      </trkpt>
      <trkpt lat="45.912629328668118" lon="9.220386352390051">
        <ele>1603.8199999999999</ele>
        <time>2024-11-24T09:50:48Z</time>
      </trkpt>
      <trkpt lat="45.912703340873122" lon="9.220294822007418">
        <ele>1601.99</ele>
        <time>2024-11-24T09:50:55Z</time>
      </trkpt>
      <trkpt lat="45.912772659212351" lon="9.220201028510928">
        <ele>1600.6300000000001</ele>
        <time>2024-11-24T09:51:03Z</time>
      </trkpt>
      <trkpt lat="45.912809371948242" lon="9.220079407095909">
        <ele>1597.5999999999999</ele>
        <time>2024-11-24T09:51:13Z</time>
      </trkpt>
      <trkpt lat="45.912842061370611" lon="9.219953175634146">
        <ele>1593.5</ele>
        <time>2024-11-24T09:51:26Z</time>
      </trkpt>
      <trkpt lat="45.912871146574616" lon="9.219839684665203">
        <ele>1590.4200000000001</ele>
        <time>2024-11-24T09:51:38Z</time>
      </trkpt>
      <trkpt lat="45.912912217900157" lon="9.219722505658865">
        <ele>1587.8399999999999</ele>
        <time>2024-11-24T09:51:48Z</time>
      </trkpt>
      <trkpt lat="45.912943901494145" lon="9.219598118215799">
        <ele>1585.0599999999999</ele>
        <time>2024-11-24T09:51:58Z</time>
      </trkpt>
      <trkpt lat="45.91298128478229" lon="9.21948429197073">
        <ele>1583.3599999999999</ele>
        <time>2024-11-24T09:52:06Z</time>
      </trkpt>
      <trkpt lat="45.913004586473107" lon="9.219342721626163">
        <ele>1580.45</ele>
        <time>2024-11-24T09:52:15Z</time>
      </trkpt>
      <trkpt lat="45.91303794644773" lon="9.219207772985101">
        <ele>1579.8299999999999</ele>
        <time>2024-11-24T09:52:22Z</time>
      </trkpt>
      <trkpt lat="45.913079855963588" lon="9.219080284237862">
        <ele>1580.1400000000001</ele>
        <time>2024-11-24T09:52:29Z</time>
      </trkpt>
      <trkpt lat="45.913118915632367" lon="9.218949107453227">
        <ele>1581.78</ele>
        <time>2024-11-24T09:52:37Z</time>
      </trkpt>
      <trkpt lat="45.913149425759912" lon="9.218820277601481">
        <ele>1583.28</ele>
        <time>2024-11-24T09:52:47Z</time>
      </trkpt>
      <trkpt lat="45.913200303912163" lon="9.218701757490635">
        <ele>1584.25</ele>
        <time>2024-11-24T09:52:56Z</time>
      </trkpt>
      <trkpt lat="45.913250260055065" lon="9.218575358390808">
        <ele>1584.72</ele>
        <time>2024-11-24T09:53:04Z</time>
      </trkpt>
      <trkpt lat="45.913302563130856" lon="9.218467902392149">
        <ele>1585.1800000000001</ele>
        <time>2024-11-24T09:53:12Z</time>
      </trkpt>
      <trkpt lat="45.913354279473424" lon="9.218362458050251">
        <ele>1585.3499999999999</ele>
        <time>2024-11-24T09:53:20Z</time>
      </trkpt>
      <trkpt lat="45.913408761844039" lon="9.218253744766116">
        <ele>1584.8499999999999</ele>
        <time>2024-11-24T09:53:28Z</time>
      </trkpt>
      <trkpt lat="45.913438349962234" lon="9.218134973198175">
        <ele>1583.4100000000001</ele>
        <time>2024-11-24T09:53:36Z</time>
      </trkpt>
      <trkpt lat="45.913491994142532" lon="9.218024834990501">
        <ele>1582.8</ele>
        <time>2024-11-24T09:53:44Z</time>
      </trkpt>
      <trkpt lat="45.913540106266737" lon="9.217911092564464">
        <ele>1582.0999999999999</ele>
        <time>2024-11-24T09:53:53Z</time>
      </trkpt>
      <trkpt lat="45.913575980812311" lon="9.217791398987174">
        <ele>1581.0799999999999</ele>
        <time>2024-11-24T09:54:00Z</time>
      </trkpt>
      <trkpt lat="45.913621997460723" lon="9.217670448124409">
        <ele>1580.45</ele>
        <time>2024-11-24T09:54:08Z</time>
      </trkpt>
      <trkpt lat="45.91364873573184" lon="9.217551676556468">
        <ele>1580.01</ele>
        <time>2024-11-24T09:54:15Z</time>
      </trkpt>
      <trkpt lat="45.913660554215312" lon="9.217415470629931">
        <ele>1579.79</ele>
        <time>2024-11-24T09:54:22Z</time>
      </trkpt>
      <trkpt lat="45.913696344941854" lon="9.217281611636281">
        <ele>1580.3699999999999</ele>
        <time>2024-11-24T09:54:30Z</time>
      </trkpt>
      <trkpt lat="45.913730962201953" lon="9.217138700187206">
        <ele>1580.8399999999999</ele>
        <time>2024-11-24T09:54:38Z</time>
      </trkpt>
      <trkpt lat="45.913770608603954" lon="9.217003080993891">
        <ele>1581.5699999999999</ele>
        <time>2024-11-24T09:54:46Z</time>
      </trkpt>
      <trkpt lat="45.913804722949862" lon="9.216878190636635">
        <ele>1583.3399999999999</ele>
        <time>2024-11-24T09:54:54Z</time>
      </trkpt>
      <trkpt lat="45.913839172571898" lon="9.216758916154504">
        <ele>1584.6700000000001</ele>
        <time>2024-11-24T09:55:02Z</time>
      </trkpt>
      <trkpt lat="45.913859540596604" lon="9.216629667207599">
        <ele>1586</ele>
        <time>2024-11-24T09:55:10Z</time>
      </trkpt>
      <trkpt lat="45.913910670205951" lon="9.216542914509773">
        <ele>1588.05</ele>
        <time>2024-11-24T09:55:19Z</time>
      </trkpt>
      <trkpt lat="45.913944030180573" lon="9.216423304751515">
        <ele>1590.97</ele>
        <time>2024-11-24T09:55:32Z</time>
      </trkpt>
      <trkpt lat="45.913990717381239" lon="9.216323224827647">
        <ele>1594.28</ele>
        <time>2024-11-24T09:55:48Z</time>
      </trkpt>
      <trkpt lat="45.914034470915794" lon="9.216212583705783">
        <ele>1597.5699999999999</ele>
        <time>2024-11-24T09:56:04Z</time>
      </trkpt>
      <trkpt lat="45.914058778434992" lon="9.216096410527825">
        <ele>1600.1199999999999</ele>
        <time>2024-11-24T09:56:19Z</time>
      </trkpt>
      <trkpt lat="45.914070094004273" lon="9.215956013649702">
        <ele>1600.8399999999999</ele>
        <time>2024-11-24T09:56:29Z</time>
      </trkpt>
      <trkpt lat="45.914094652980566" lon="9.215824585407972">
        <ele>1599.72</ele>
        <time>2024-11-24T09:56:37Z</time>
      </trkpt>
      <trkpt lat="45.914139999076724" lon="9.215693576261401">
        <ele>1598.3</ele>
        <time>2024-11-24T09:56:44Z</time>
      </trkpt>
      <trkpt lat="45.914187021553516" lon="9.215577403083444">
        <ele>1597.23</ele>
        <time>2024-11-24T09:56:51Z</time>
      </trkpt>
      <trkpt lat="45.914207138121128" lon="9.215440023690462">
        <ele>1595.48</ele>
        <time>2024-11-24T09:56:57Z</time>
      </trkpt>
      <trkpt lat="45.914229350164533" lon="9.215315468609333">
        <ele>1595.3199999999999</ele>
        <time>2024-11-24T09:57:04Z</time>
      </trkpt>
      <trkpt lat="45.91427125968039" lon="9.215186471119523">
        <ele>1595.55</ele>
        <time>2024-11-24T09:57:12Z</time>
      </trkpt>
      <trkpt lat="45.914322473108768" lon="9.215075243264437">
        <ele>1595.9200000000001</ele>
        <time>2024-11-24T09:57:20Z</time>
      </trkpt>
      <trkpt lat="45.914372932165861" lon="9.214956052601337">
        <ele>1595.9100000000001</ele>
        <time>2024-11-24T09:57:28Z</time>
      </trkpt>
      <trkpt lat="45.914418529719114" lon="9.214837867766619">
        <ele>1596.03</ele>
        <time>2024-11-24T09:57:35Z</time>
      </trkpt>
      <trkpt lat="45.914447782561183" lon="9.214716162532568">
        <ele>1596.9000000000001</ele>
        <time>2024-11-24T09:57:42Z</time>
      </trkpt>
      <trkpt lat="45.914472676813602" lon="9.214589344337583">
        <ele>1597.95</ele>
        <time>2024-11-24T09:57:50Z</time>
      </trkpt>
      <trkpt lat="45.914484914392233" lon="9.214452719315887">
        <ele>1599.52</ele>
        <time>2024-11-24T09:57:58Z</time>
      </trkpt>
      <trkpt lat="45.914514670148492" lon="9.214324308559299">
        <ele>1600.8199999999999</ele>
        <time>2024-11-24T09:58:06Z</time>
      </trkpt>
      <trkpt lat="45.914558758959174" lon="9.214207045733929">
        <ele>1602.1600000000001</ele>
        <time>2024-11-24T09:58:14Z</time>
      </trkpt>
      <trkpt lat="45.914605781435966" lon="9.214092716574669">
        <ele>1603.1099999999999</ele>
        <time>2024-11-24T09:58:22Z</time>
      </trkpt>
      <trkpt lat="45.914652636274695" lon="9.213968748226762">
        <ele>1604.6700000000001</ele>
        <time>2024-11-24T09:58:31Z</time>
      </trkpt>
      <trkpt lat="45.914688762277365" lon="9.213841259479523">
        <ele>1605.75</ele>
        <time>2024-11-24T09:58:40Z</time>
      </trkpt>
      <trkpt lat="45.914719607681036" lon="9.213716285303235">
        <ele>1607.51</ele>
        <time>2024-11-24T09:58:49Z</time>
      </trkpt>
      <trkpt lat="45.914746262133121" lon="9.213586198166013">
        <ele>1608.1700000000001</ele>
        <time>2024-11-24T09:58:58Z</time>
      </trkpt>
      <trkpt lat="45.914765037596226" lon="9.213456697762013">
        <ele>1609.3699999999999</ele>
        <time>2024-11-24T09:59:07Z</time>
      </trkpt>
      <trkpt lat="45.914773251861334" lon="9.213326359167695">
        <ele>1610.1600000000001</ele>
        <time>2024-11-24T09:59:16Z</time>
      </trkpt>
      <trkpt lat="45.914760762825608" lon="9.213199624791741">
        <ele>1611.3800000000001</ele>
        <time>2024-11-24T09:59:25Z</time>
      </trkpt>
      <trkpt lat="45.914784567430615" lon="9.213063335046172">
        <ele>1614.0599999999999</ele>
        <time>2024-11-24T09:59:37Z</time>
      </trkpt>
      <trkpt lat="45.914831589907408" lon="9.212948838248849">
        <ele>1616.3900000000001</ele>
        <time>2024-11-24T09:59:49Z</time>
      </trkpt>
      <trkpt lat="45.914883725345135" lon="9.212839957326651">
        <ele>1619.45</ele>
        <time>2024-11-24T10:00:03Z</time>
      </trkpt>
      <trkpt lat="45.91489621438086" lon="9.212712720036507">
        <ele>1622.3499999999999</ele>
        <time>2024-11-24T10:00:18Z</time>
      </trkpt>
      <trkpt lat="45.914925299584866" lon="9.212585063651204">
        <ele>1625.75</ele>
        <time>2024-11-24T10:00:44Z</time>
      </trkpt>
      <trkpt lat="45.914968717843294" lon="9.21249395236373">
        <ele>1629.9300000000001</ele>
        <time>2024-11-24T10:01:03Z</time>
      </trkpt>
      <trkpt lat="45.914977854117751" lon="9.212359758093953">
        <ele>1634.6199999999999</ele>
        <time>2024-11-24T10:01:25Z</time>
      </trkpt>
      <trkpt lat="45.915051363408566" lon="9.212303347885609">
        <ele>1638.8</ele>
        <time>2024-11-24T10:01:45Z</time>
      </trkpt>
      <trkpt lat="45.915063433349133" lon="9.21218222938478">
        <ele>1642.3399999999999</ele>
        <time>2024-11-24T10:02:09Z</time>
      </trkpt>
      <trkpt lat="45.915108779445291" lon="9.212100757285953">
        <ele>1646.8099999999999</ele>
        <time>2024-11-24T10:02:31Z</time>
      </trkpt>
      <trkpt lat="45.915162255987525" lon="9.212008304893971">
        <ele>1650.97</ele>
        <time>2024-11-24T10:02:51Z</time>
      </trkpt>
      <trkpt lat="45.915197124704719" lon="9.211922055110335">
        <ele>1654.45</ele>
        <time>2024-11-24T10:03:10Z</time>
      </trkpt>
      <trkpt lat="45.915212715044618" lon="9.211799511685967">
        <ele>1656.6700000000001</ele>
        <time>2024-11-24T10:03:27Z</time>
      </trkpt>
      <trkpt lat="45.915224030613899" lon="9.211669089272618">
        <ele>1658.54</ele>
        <time>2024-11-24T10:03:40Z</time>
      </trkpt>
      <trkpt lat="45.915226880460978" lon="9.211538750678301">
        <ele>1660.6099999999999</ele>
        <time>2024-11-24T10:03:54Z</time>
      </trkpt>
      <trkpt lat="45.915227634832263" lon="9.211411597207189">
        <ele>1662.8299999999999</ele>
        <time>2024-11-24T10:04:08Z</time>
      </trkpt>
      <trkpt lat="45.915229311212897" lon="9.211286623030901">
        <ele>1666.3699999999999</ele>
        <time>2024-11-24T10:04:24Z</time>
      </trkpt>
      <trkpt lat="45.91525437310338" lon="9.211164163425565">
        <ele>1669.4200000000001</ele>
        <time>2024-11-24T10:04:37Z</time>
      </trkpt>
      <trkpt lat="45.915258480235934" lon="9.211037261411548">
        <ele>1671.9300000000001</ele>
        <time>2024-11-24T10:04:51Z</time>
      </trkpt>
      <trkpt lat="45.9152602404356" lon="9.210908096283674">
        <ele>1674.5699999999999</ele>
        <time>2024-11-24T10:05:05Z</time>
      </trkpt>
      <trkpt lat="45.915265185758471" lon="9.210774404928088">
        <ele>1676.26</ele>
        <time>2024-11-24T10:05:18Z</time>
      </trkpt>
      <trkpt lat="45.915265688672662" lon="9.21064012683928">
        <ele>1677.71</ele>
        <time>2024-11-24T10:05:30Z</time>
      </trkpt>
      <trkpt lat="45.915262922644615" lon="9.210515320301056">
        <ele>1678.46</ele>
        <time>2024-11-24T10:05:40Z</time>
      </trkpt>
      <trkpt lat="45.915271220728755" lon="9.21038456261158">
        <ele>1680.49</ele>
        <time>2024-11-24T10:05:52Z</time>
      </trkpt>
      <trkpt lat="45.915301898494363" lon="9.210269646719098">
        <ele>1682.0799999999999</ele>
        <time>2024-11-24T10:06:21Z</time>
      </trkpt>
      <trkpt lat="45.915336012840271" lon="9.210139894858003">
        <ele>1683.6900000000001</ele>
        <time>2024-11-24T10:06:32Z</time>
      </trkpt>
      <trkpt lat="45.915367947891355" lon="9.210014836862683">
        <ele>1685.04</ele>
        <time>2024-11-24T10:06:42Z</time>
      </trkpt>
      <trkpt lat="45.91540340334177" lon="9.209904698655009">
        <ele>1685.8800000000001</ele>
        <time>2024-11-24T10:06:54Z</time>
      </trkpt>
      <trkpt lat="45.915467273443937" lon="9.209804954007268">
        <ele>1686.23</ele>
        <time>2024-11-24T10:07:03Z</time>
      </trkpt>
      <trkpt lat="45.915534663945436" lon="9.209696240723133">
        <ele>1685.46</ele>
        <time>2024-11-24T10:07:11Z</time>
      </trkpt>
      <trkpt lat="45.915616387501359" lon="9.209632202982903">
        <ele>1684.54</ele>
        <time>2024-11-24T10:07:19Z</time>
      </trkpt>
      <trkpt lat="45.915697691962123" lon="9.209563806653023">
        <ele>1683.0799999999999</ele>
        <time>2024-11-24T10:07:26Z</time>
      </trkpt>
      <trkpt lat="45.915779415518045" lon="9.209488285705447">
        <ele>1682.6300000000001</ele>
        <time>2024-11-24T10:07:34Z</time>
      </trkpt>
      <trkpt lat="45.915861139073968" lon="9.209415698423982">
        <ele>1682.5999999999999</ele>
        <time>2024-11-24T10:07:42Z</time>
      </trkpt>
      <trkpt lat="45.915936660021544" lon="9.209341937676072">
        <ele>1682.23</ele>
        <time>2024-11-24T10:07:50Z</time>
      </trkpt>
      <trkpt lat="45.916018383577466" lon="9.209280163049698">
        <ele>1681.0699999999999</ele>
        <time>2024-11-24T10:07:59Z</time>
      </trkpt>
      <trkpt lat="45.916086528450251" lon="9.20918645337224">
        <ele>1679.78</ele>
        <time>2024-11-24T10:08:08Z</time>
      </trkpt>
      <trkpt lat="45.916148889809847" lon="9.209078075364232">
        <ele>1678</ele>
        <time>2024-11-24T10:08:17Z</time>
      </trkpt>
      <trkpt lat="45.916199935600162" lon="9.208980426192284">
        <ele>1676.04</ele>
        <time>2024-11-24T10:08:27Z</time>
      </trkpt>
      <trkpt lat="45.916239582002163" lon="9.209100538864732">
        <ele>1674.24</ele>
        <time>2024-11-24T10:08:43Z</time>
      </trkpt>
      <trkpt lat="45.916255004703999" lon="9.209234397858381">
        <ele>1670.74</ele>
        <time>2024-11-24T10:08:55Z</time>
      </trkpt>
      <trkpt lat="45.916286772117019" lon="9.209371441975236">
        <ele>1666.01</ele>
        <time>2024-11-24T10:09:12Z</time>
      </trkpt>
      <trkpt lat="45.916333459317684" lon="9.209451489150524">
        <ele>1660.8599999999999</ele>
        <time>2024-11-24T10:09:38Z</time>
      </trkpt>
      <trkpt lat="45.916381571441889" lon="9.209545366466045">
        <ele>1654.49</ele>
        <time>2024-11-24T10:10:31Z</time>
      </trkpt>
      <trkpt lat="45.916419122368097" lon="9.209651062265039">
        <ele>1650.45</ele>
        <time>2024-11-24T10:10:54Z</time>
      </trkpt>
      <trkpt lat="45.916432533413172" lon="9.209763379767537">
        <ele>1646.6099999999999</ele>
        <time>2024-11-24T10:11:15Z</time>
      </trkpt>
      <trkpt lat="45.916412500664592" lon="9.209851557388902">
        <ele>1642.6700000000001</ele>
        <time>2024-11-24T10:11:34Z</time>
      </trkpt>
      <trkpt lat="45.916500678285956" lon="9.209837894886732">
        <ele>1637.78</ele>
        <time>2024-11-24T10:11:58Z</time>
      </trkpt>
      <trkpt lat="45.916588352993131" lon="9.209808893501759">
        <ele>1632.8800000000001</ele>
        <time>2024-11-24T10:12:21Z</time>
      </trkpt>
      <trkpt lat="45.91661567799747" lon="9.209930347278714">
        <ele>1628</ele>
        <time>2024-11-24T10:18:31Z</time>
      </trkpt>
      <trkpt lat="45.916643338277936" lon="9.210027996450663">
        <ele>1623.6300000000001</ele>
        <time>2024-11-24T10:18:56Z</time>
      </trkpt>
      <trkpt lat="45.916729001328349" lon="9.210013328120112">
        <ele>1618.0799999999999</ele>
        <time>2024-11-24T10:19:24Z</time>
      </trkpt>
      <trkpt lat="45.916788429021835" lon="9.210058758035302">
        <ele>1612.77</ele>
        <time>2024-11-24T10:19:45Z</time>
      </trkpt>
      <trkpt lat="45.916853891685605" lon="9.21011189930141">
        <ele>1608.05</ele>
        <time>2024-11-24T10:20:07Z</time>
      </trkpt>
      <trkpt lat="45.916939219459891" lon="9.210113994777203">
        <ele>1602.75</ele>
        <time>2024-11-24T10:20:36Z</time>
      </trkpt>
      <trkpt lat="45.916955145075917" lon="9.210230922326446">
        <ele>1598.49</ele>
        <time>2024-11-24T10:20:58Z</time>
      </trkpt>
      <trkpt lat="45.916978362947702" lon="9.210335612297058">
        <ele>1593.8499999999999</ele>
        <time>2024-11-24T10:21:19Z</time>
      </trkpt>
      <trkpt lat="45.917059499770403" lon="9.210356064140797">
        <ele>1589.8199999999999</ele>
        <time>2024-11-24T10:21:37Z</time>
      </trkpt>
      <trkpt lat="45.917080203071237" lon="9.210440218448639">
        <ele>1584.1700000000001</ele>
        <time>2024-11-24T10:22:01Z</time>
      </trkpt>
      <trkpt lat="45.917153544723988" lon="9.210401494055986">
        <ele>1580.1500000000001</ele>
        <time>2024-11-24T10:22:25Z</time>
      </trkpt>
      <trkpt lat="45.917236693203449" lon="9.210412641987205">
        <ele>1575.3499999999999</ele>
        <time>2024-11-24T10:22:47Z</time>
      </trkpt>
      <trkpt lat="45.917306262999773" lon="9.21032102778554">
        <ele>1571.6800000000001</ele>
        <time>2024-11-24T10:23:00Z</time>
      </trkpt>
      <trkpt lat="45.917356302961707" lon="9.210219355300069">
        <ele>1567.5599999999999</ele>
        <time>2024-11-24T10:23:18Z</time>
      </trkpt>
      <trkpt lat="45.917412545531988" lon="9.210277190431953">
        <ele>1563.52</ele>
        <time>2024-11-24T10:23:42Z</time>
      </trkpt>
      <trkpt lat="45.917459316551685" lon="9.210333013907075">
        <ele>1558.8</ele>
        <time>2024-11-24T10:24:14Z</time>
      </trkpt>
      <trkpt lat="45.91751522384584" lon="9.210318177938461">
        <ele>1554.74</ele>
        <time>2024-11-24T10:24:34Z</time>
      </trkpt>
      <trkpt lat="45.917594516649842" lon="9.210389172658324">
        <ele>1550.54</ele>
        <time>2024-11-24T10:24:59Z</time>
      </trkpt>
      <trkpt lat="45.917644221335649" lon="9.210394872352481">
        <ele>1545.9300000000001</ele>
        <time>2024-11-24T10:25:16Z</time>
      </trkpt>
      <trkpt lat="45.917722173035145" lon="9.210396381095052">
        <ele>1541.25</ele>
        <time>2024-11-24T10:25:53Z</time>
      </trkpt>
      <trkpt lat="45.917816385626793" lon="9.210428986698389">
        <ele>1535.8800000000001</ele>
        <time>2024-11-24T10:26:30Z</time>
      </trkpt>
      <trkpt lat="45.917872879654169" lon="9.210466705262661">
        <ele>1530.27</ele>
        <time>2024-11-24T10:26:54Z</time>
      </trkpt>
      <trkpt lat="45.917921578511596" lon="9.21050718985498">
        <ele>1525.3800000000001</ele>
        <time>2024-11-24T10:27:29Z</time>
      </trkpt>
      <trkpt lat="45.917994668707252" lon="9.210512386634946">
        <ele>1520.8699999999999</ele>
        <time>2024-11-24T10:27:53Z</time>
      </trkpt>
      <trkpt lat="45.918036326766014" lon="9.210580280050635">
        <ele>1516.02</ele>
        <time>2024-11-24T10:28:44Z</time>
      </trkpt>
      <trkpt lat="45.918113691732287" lon="9.210655800998211">
        <ele>1510.4400000000001</ele>
        <time>2024-11-24T10:29:15Z</time>
      </trkpt>
      <trkpt lat="45.918163899332285" lon="9.21068605966866">
        <ele>1505.3599999999999</ele>
        <time>2024-11-24T10:29:43Z</time>
      </trkpt>
      <trkpt lat="45.918237157166004" lon="9.210745487362146">
        <ele>1500.8699999999999</ele>
        <time>2024-11-24T10:30:01Z</time>
      </trkpt>
      <trkpt lat="45.918318713083863" lon="9.210786558687687">
        <ele>1495.77</ele>
        <time>2024-11-24T10:30:17Z</time>
      </trkpt>
      <trkpt lat="45.918395239859819" lon="9.210864761844277">
        <ele>1491.0799999999999</ele>
        <time>2024-11-24T10:30:35Z</time>
      </trkpt>
      <trkpt lat="45.918458607047796" lon="9.210923183709383">
        <ele>1486.96</ele>
        <time>2024-11-24T10:30:51Z</time>
      </trkpt>
      <trkpt lat="45.918535552918911" lon="9.211006499826908">
        <ele>1481.8199999999999</ele>
        <time>2024-11-24T10:31:07Z</time>
      </trkpt>
      <trkpt lat="45.918633034452796" lon="9.211066598072648">
        <ele>1476.5999999999999</ele>
        <time>2024-11-24T10:31:27Z</time>
      </trkpt>
      <trkpt lat="45.918709142133594" lon="9.211118314415216">
        <ele>1474.99</ele>
        <time>2024-11-24T10:32:31Z</time>
      </trkpt>
      <trkpt lat="45.918762283399701" lon="9.211216298863292">
        <ele>1469.71</ele>
        <time>2024-11-24T10:32:55Z</time>
      </trkpt>
      <trkpt lat="45.918855993077159" lon="9.211347224190831">
        <ele>1463.3399999999999</ele>
        <time>2024-11-24T10:33:17Z</time>
      </trkpt>
      <trkpt lat="45.918943751603365" lon="9.211478820070624">
        <ele>1458.24</ele>
        <time>2024-11-24T10:33:34Z</time>
      </trkpt>
      <trkpt lat="45.919038215652108" lon="9.211595160886645">
        <ele>1452.5599999999999</ele>
        <time>2024-11-24T10:33:50Z</time>
      </trkpt>
      <trkpt lat="45.919119520112872" lon="9.211678644642234">
        <ele>1449.1800000000001</ele>
        <time>2024-11-24T10:34:10Z</time>
      </trkpt>
      <trkpt lat="45.919230412691832" lon="9.211707394570112">
        <ele>1446.9000000000001</ele>
        <time>2024-11-24T10:34:34Z</time>
      </trkpt>
      <trkpt lat="45.919295204803348" lon="9.211838068440557">
        <ele>1441.3800000000001</ele>
        <time>2024-11-24T10:34:49Z</time>
      </trkpt>
      <trkpt lat="45.919360835105181" lon="9.211971173062921">
        <ele>1436.6300000000001</ele>
        <time>2024-11-24T10:35:08Z</time>
      </trkpt>
      <trkpt lat="45.919459741562605" lon="9.211987685412169">
        <ele>1434.48</ele>
        <time>2024-11-24T10:35:46Z</time>
      </trkpt>
      <trkpt lat="45.919560575857759" lon="9.212044179439545">
        <ele>1431.72</ele>
        <time>2024-11-24T10:36:03Z</time>
      </trkpt>
      <trkpt lat="45.919651184231043" lon="9.212074689567089">
        <ele>1428.5599999999999</ele>
        <time>2024-11-24T10:36:20Z</time>
      </trkpt>
      <trkpt lat="45.919728213921189" lon="9.212192120030522">
        <ele>1424.1099999999999</ele>
        <time>2024-11-24T10:36:37Z</time>
      </trkpt>
      <trkpt lat="45.919786300510168" lon="9.212318854406476">
        <ele>1419.48</ele>
        <time>2024-11-24T10:36:50Z</time>
      </trkpt>
      <trkpt lat="45.919828880578279" lon="9.212446426972747">
        <ele>1412.51</ele>
        <time>2024-11-24T10:37:09Z</time>
      </trkpt>
      <trkpt lat="45.919899037107825" lon="9.212588500231504">
        <ele>1409.1300000000001</ele>
        <time>2024-11-24T10:37:33Z</time>
      </trkpt>
      <trkpt lat="45.919981598854065" lon="9.212730405852199">
        <ele>1406.01</ele>
        <time>2024-11-24T10:37:51Z</time>
      </trkpt>
      <trkpt lat="45.920034404844046" lon="9.212860325351358">
        <ele>1401.3900000000001</ele>
        <time>2024-11-24T10:38:10Z</time>
      </trkpt>
      <trkpt lat="45.92009567655623" lon="9.212975660338998">
        <ele>1396.02</ele>
        <time>2024-11-24T10:38:35Z</time>
      </trkpt>
      <trkpt lat="45.92017580755055" lon="9.213114129379392">
        <ele>1390.1300000000001</ele>
        <time>2024-11-24T10:38:52Z</time>
      </trkpt>
      <trkpt lat="45.920291729271412" lon="9.213172970339656">
        <ele>1386.5</ele>
        <time>2024-11-24T10:39:08Z</time>
      </trkpt>
      <trkpt lat="45.920378649607301" lon="9.213290400803089">
        <ele>1380.78</ele>
        <time>2024-11-24T10:39:32Z</time>
      </trkpt>
      <trkpt lat="45.920486021786928" lon="9.213378662243486">
        <ele>1376.0699999999999</ele>
        <time>2024-11-24T10:39:48Z</time>
      </trkpt>
      <trkpt lat="45.920597249642015" lon="9.21346147544682">
        <ele>1373</ele>
        <time>2024-11-24T10:40:04Z</time>
      </trkpt>
      <trkpt lat="45.920690875500441" lon="9.213530961424112">
        <ele>1367.74</ele>
        <time>2024-11-24T10:40:20Z</time>
      </trkpt>
      <trkpt lat="45.920749716460705" lon="9.213677980005741">
        <ele>1362.74</ele>
        <time>2024-11-24T10:40:35Z</time>
      </trkpt>
      <trkpt lat="45.920793721452355" lon="9.213793063536286">
        <ele>1358.72</ele>
        <time>2024-11-24T10:40:49Z</time>
      </trkpt>
      <trkpt lat="45.920845018699765" lon="9.213937986642122">
        <ele>1354.95</ele>
        <time>2024-11-24T10:41:05Z</time>
      </trkpt>
      <trkpt lat="45.920868068933487" lon="9.214111408218741">
        <ele>1350.0799999999999</ele>
        <time>2024-11-24T10:41:23Z</time>
      </trkpt>
      <trkpt lat="45.920907631516457" lon="9.214268233627081">
        <ele>1345.9000000000001</ele>
        <time>2024-11-24T10:41:37Z</time>
      </trkpt>
      <trkpt lat="45.920969406142831" lon="9.214440397918224">
        <ele>1341.3399999999999</ele>
        <time>2024-11-24T10:41:51Z</time>
      </trkpt>
      <trkpt lat="45.921049537137151" lon="9.214600324630737">
        <ele>1336.27</ele>
        <time>2024-11-24T10:42:09Z</time>
      </trkpt>
      <trkpt lat="45.921138385310769" lon="9.214707277715206">
        <ele>1331.96</ele>
        <time>2024-11-24T10:42:23Z</time>
      </trkpt>
      <trkpt lat="45.921232430264354" lon="9.214819511398673">
        <ele>1327.52</ele>
        <time>2024-11-24T10:42:37Z</time>
      </trkpt>
      <trkpt lat="45.921334102749825" lon="9.214888662099838">
        <ele>1323.4000000000001</ele>
        <time>2024-11-24T10:42:53Z</time>
      </trkpt>
      <trkpt lat="45.921409372240305" lon="9.214962422847748">
        <ele>1319.8</ele>
        <time>2024-11-24T10:43:07Z</time>
      </trkpt>
      <trkpt lat="45.921408953145146" lon="9.215125786140561">
        <ele>1314.8399999999999</ele>
        <time>2024-11-24T10:43:25Z</time>
      </trkpt>
      <trkpt lat="45.921477852389216" lon="9.215158307924867">
        <ele>1309.8299999999999</ele>
        <time>2024-11-24T10:43:42Z</time>
      </trkpt>
      <trkpt lat="45.921535016968846" lon="9.21531337313354">
        <ele>1304.23</ele>
        <time>2024-11-24T10:44:00Z</time>
      </trkpt>
      <trkpt lat="45.921553876250982" lon="9.215449243783951">
        <ele>1299.3099999999999</ele>
        <time>2024-11-24T10:44:12Z</time>
      </trkpt>
      <trkpt lat="45.921501154080033" lon="9.215560806915164">
        <ele>1295.47</ele>
        <time>2024-11-24T10:44:25Z</time>
      </trkpt>
      <trkpt lat="45.921518756076694" lon="9.215614702552557">
        <ele>1292.51</ele>
        <time>2024-11-24T10:44:49Z</time>
      </trkpt>
      <trkpt lat="45.921632163226604" lon="9.215635154396296">
        <ele>1288.23</ele>
        <time>2024-11-24T10:45:07Z</time>
      </trkpt>
      <trkpt lat="45.921749426051974" lon="9.215672789141536">
        <ele>1283.1900000000001</ele>
        <time>2024-11-24T10:45:21Z</time>
      </trkpt>
      <trkpt lat="45.921878507360816" lon="9.215715872123838">
        <ele>1278.3399999999999</ele>
        <time>2024-11-24T10:45:36Z</time>
      </trkpt>
      <trkpt lat="45.921994429081678" lon="9.215681087225676">
        <ele>1275.0799999999999</ele>
        <time>2024-11-24T10:45:48Z</time>
      </trkpt>
      <trkpt lat="45.922122169286013" lon="9.215704975649715">
        <ele>1270.9000000000001</ele>
        <time>2024-11-24T10:46:05Z</time>
      </trkpt>
      <trkpt lat="45.922207832336426" lon="9.215701874345541">
        <ele>1267.6500000000001</ele>
        <time>2024-11-24T10:46:14Z</time>
      </trkpt>
      <trkpt lat="45.92222610488534" lon="9.215843109413981">
        <ele>1264.1500000000001</ele>
        <time>2024-11-24T10:46:23Z</time>
      </trkpt>
      <trkpt lat="45.922259800136089" lon="9.215963054448366">
        <ele>1261.1500000000001</ele>
        <time>2024-11-24T10:46:31Z</time>
      </trkpt>
      <trkpt lat="45.922293327748775" lon="9.216082580387592">
        <ele>1258.3399999999999</ele>
        <time>2024-11-24T10:46:41Z</time>
      </trkpt>
      <trkpt lat="45.922330962494016" lon="9.21619875356555">
        <ele>1254.74</ele>
        <time>2024-11-24T10:46:53Z</time>
      </trkpt>
      <trkpt lat="45.922378906980157" lon="9.216306544840336">
        <ele>1251.1099999999999</ele>
        <time>2024-11-24T10:47:02Z</time>
      </trkpt>
      <trkpt lat="45.922423750162125" lon="9.216402852907777">
        <ele>1248.1400000000001</ele>
        <time>2024-11-24T10:47:10Z</time>
      </trkpt>
      <trkpt lat="45.922453086823225" lon="9.216520115733147">
        <ele>1245.5999999999999</ele>
        <time>2024-11-24T10:47:18Z</time>
      </trkpt>
      <trkpt lat="45.922474376857281" lon="9.21664291061461">
        <ele>1242.7</ele>
        <time>2024-11-24T10:47:26Z</time>
      </trkpt>
      <trkpt lat="45.922472197562456" lon="9.216772159561515">
        <ele>1240.71</ele>
        <time>2024-11-24T10:47:34Z</time>
      </trkpt>
      <trkpt lat="45.922497259452939" lon="9.216898223385215">
        <ele>1237.3499999999999</ele>
        <time>2024-11-24T10:47:44Z</time>
      </trkpt>
      <trkpt lat="45.92258577235043" lon="9.2168437410146">
        <ele>1234.9000000000001</ele>
        <time>2024-11-24T10:47:54Z</time>
      </trkpt>
      <trkpt lat="45.922655090689659" lon="9.216749193146825">
        <ele>1233.22</ele>
        <time>2024-11-24T10:48:02Z</time>
      </trkpt>
      <trkpt lat="45.922710243612528" lon="9.216644754633308">
        <ele>1230.4200000000001</ele>
        <time>2024-11-24T10:48:10Z</time>
      </trkpt>
      <trkpt lat="45.922754416242242" lon="9.216519361361861">
        <ele>1228.4000000000001</ele>
        <time>2024-11-24T10:48:19Z</time>
      </trkpt>
      <trkpt lat="45.922791128978133" lon="9.216396566480398">
        <ele>1226.6199999999999</ele>
        <time>2024-11-24T10:48:27Z</time>
      </trkpt>
      <trkpt lat="45.922837313264608" lon="9.216272011399269">
        <ele>1224.73</ele>
        <time>2024-11-24T10:48:35Z</time>
      </trkpt>
      <trkpt lat="45.922866398468614" lon="9.216138403862715">
        <ele>1223.1300000000001</ele>
        <time>2024-11-24T10:48:43Z</time>
      </trkpt>
      <trkpt lat="45.922893472015858" lon="9.21600035391748">
        <ele>1221.6900000000001</ele>
        <time>2024-11-24T10:48:51Z</time>
      </trkpt>
      <trkpt lat="45.922969412058592" lon="9.215975292026997">
        <ele>1220.3399999999999</ele>
        <time>2024-11-24T10:48:59Z</time>
      </trkpt>
      <trkpt lat="45.922973351553082" lon="9.216113341972232">
        <ele>1218.51</ele>
        <time>2024-11-24T10:49:08Z</time>
      </trkpt>
      <trkpt lat="45.923092039301991" lon="9.216454485431314">
        <ele>1211.1900000000001</ele>
        <time>2024-11-24T10:49:46Z</time>
      </trkpt>
      <trkpt lat="45.923185078427196" lon="9.21665514819324">
        <ele>1206.47</ele>
        <time>2024-11-24T10:50:05Z</time>
      </trkpt>
      <trkpt lat="45.923237884417176" lon="9.216722622513771">
        <ele>1203.9400000000001</ele>
        <time>2024-11-24T10:50:14Z</time>
      </trkpt>
      <trkpt lat="45.923232771456242" lon="9.216687837615609">
        <ele>1204.3800000000001</ele>
        <time>2024-11-24T10:51:03Z</time>
      </trkpt>
      <trkpt lat="45.923171751201153" lon="9.216609299182892">
        <ele>1207.1600000000001</ele>
        <time>2024-11-24T10:51:16Z</time>
      </trkpt>
      <trkpt lat="45.923122465610504" lon="9.216519612818956">
        <ele>1210</ele>
        <time>2024-11-24T10:52:00Z</time>
      </trkpt>
      <trkpt lat="45.923088183626533" lon="9.216398829594255">
        <ele>1211.5599999999999</ele>
        <time>2024-11-24T10:52:16Z</time>
      </trkpt>
      <trkpt lat="45.923027750104666" lon="9.216116024181247">
        <ele>1217.3399999999999</ele>
        <time>2024-11-24T10:56:03Z</time>
      </trkpt>
      <trkpt lat="45.922997994348407" lon="9.215969005599618">
        <ele>1219.3499999999999</ele>
        <time>2024-11-24T10:56:16Z</time>
      </trkpt>
      <trkpt lat="45.922910319641232" lon="9.216010412201285">
        <ele>1220.5699999999999</ele>
        <time>2024-11-24T10:59:54Z</time>
      </trkpt>
      <trkpt lat="45.922883078455925" lon="9.216152988374233">
        <ele>1222.4200000000001</ele>
        <time>2024-11-24T11:00:04Z</time>
      </trkpt>
      <trkpt lat="45.922848545014858" lon="9.216284500434995">
        <ele>1224.01</ele>
        <time>2024-11-24T11:00:14Z</time>
      </trkpt>
      <trkpt lat="45.922807473689318" lon="9.216408049687743">
        <ele>1226.04</ele>
        <time>2024-11-24T11:00:26Z</time>
      </trkpt>
      <trkpt lat="45.922763301059604" lon="9.216528916731477">
        <ele>1228.0599999999999</ele>
        <time>2024-11-24T11:00:39Z</time>
      </trkpt>
      <trkpt lat="45.922711752355099" lon="9.216645173728466">
        <ele>1230.28</ele>
        <time>2024-11-24T11:00:55Z</time>
      </trkpt>
      <trkpt lat="45.922642350196838" lon="9.216748690232635">
        <ele>1232.5999999999999</ele>
        <time>2024-11-24T11:01:11Z</time>
      </trkpt>
      <trkpt lat="45.922573702409863" lon="9.216844076290727">
        <ele>1234.6600000000001</ele>
        <time>2024-11-24T11:01:25Z</time>
      </trkpt>
      <trkpt lat="45.92251293361187" lon="9.216916160658002">
        <ele>1236.45</ele>
        <time>2024-11-24T11:01:58Z</time>
      </trkpt>
      <trkpt lat="45.922504048794508" lon="9.216915406286717">
        <ele>1238.9400000000001</ele>
        <time>2024-11-24T11:08:54Z</time>
      </trkpt>
      <trkpt lat="45.922566661611199" lon="9.216814404353499">
        <ele>1237.3599999999999</ele>
        <time>2024-11-24T11:09:38Z</time>
      </trkpt>
      <trkpt lat="45.922633716836572" lon="9.216724466532469">
        <ele>1235.5999999999999</ele>
        <time>2024-11-24T11:09:47Z</time>
      </trkpt>
      <trkpt lat="45.922697586938739" lon="9.216618267819285">
        <ele>1233.74</ele>
        <time>2024-11-24T11:10:05Z</time>
      </trkpt>
      <trkpt lat="45.922748632729053" lon="9.216499999165535">
        <ele>1231.9000000000001</ele>
        <time>2024-11-24T11:10:16Z</time>
      </trkpt>
      <trkpt lat="45.922802947461605" lon="9.216371336951852">
        <ele>1230.05</ele>
        <time>2024-11-24T11:10:25Z</time>
      </trkpt>
      <trkpt lat="45.922854160889983" lon="9.216253319755197">
        <ele>1228.0599999999999</ele>
        <time>2024-11-24T11:10:34Z</time>
      </trkpt>
      <trkpt lat="45.922898082062602" lon="9.216132452711463">
        <ele>1226.45</ele>
        <time>2024-11-24T11:10:43Z</time>
      </trkpt>
      <trkpt lat="45.922910068184137" lon="9.215993313118815">
        <ele>1225.03</ele>
        <time>2024-11-24T11:10:52Z</time>
      </trkpt>
      <trkpt lat="45.922978967428207" lon="9.215951571241021">
        <ele>1223.6500000000001</ele>
        <time>2024-11-24T11:11:03Z</time>
      </trkpt>
      <trkpt lat="45.923015177249908" lon="9.216076796874404">
        <ele>1221.71</ele>
        <time>2024-11-24T11:11:15Z</time>
      </trkpt>
      <trkpt lat="45.92305826023221" lon="9.216204201802611">
        <ele>1219</ele>
        <time>2024-11-24T11:11:27Z</time>
      </trkpt>
      <trkpt lat="45.92306999489665" lon="9.216329427435994">
        <ele>1216.6500000000001</ele>
        <time>2024-11-24T11:12:48Z</time>
      </trkpt>
      <trkpt lat="45.92314769513905" lon="9.216454233974218">
        <ele>1219</ele>
        <time>2024-11-24T13:16:58Z</time>
      </trkpt>
      <trkpt lat="45.92317602597177" lon="9.216489437967539">
        <ele>1216.29</ele>
        <time>2024-11-24T13:22:52Z</time>
      </trkpt>
      <trkpt lat="45.923158340156078" lon="9.216553224250674">
        <ele>1216.23</ele>
        <time>2024-11-24T13:24:20Z</time>
      </trkpt>
      <trkpt lat="45.923234531655908" lon="9.216647855937481">
        <ele>1211.6199999999999</ele>
        <time>2024-11-24T13:24:37Z</time>
      </trkpt>
      <trkpt lat="45.923299994319677" lon="9.216745337471366">
        <ele>1209</ele>
        <time>2024-11-24T13:24:52Z</time>
      </trkpt>
      <trkpt lat="45.923369312658906" lon="9.216830916702747">
        <ele>1205.9000000000001</ele>
        <time>2024-11-24T13:25:05Z</time>
      </trkpt>
      <trkpt lat="45.923428907990456" lon="9.216928482055664">
        <ele>1203.8099999999999</ele>
        <time>2024-11-24T13:25:18Z</time>
      </trkpt>
      <trkpt lat="45.923501243814826" lon="9.216993190348148">
        <ele>1201.6500000000001</ele>
        <time>2024-11-24T13:25:31Z</time>
      </trkpt>
      <trkpt lat="45.92347308062017" lon="9.217019928619266">
        <ele>1201.0999999999999</ele>
        <time>2024-11-24T13:25:50Z</time>
      </trkpt>
      <trkpt lat="45.923395045101643" lon="9.216936780139804">
        <ele>1203.4000000000001</ele>
        <time>2024-11-24T13:25:59Z</time>
      </trkpt>
      <trkpt lat="45.9233817178756" lon="9.216833934187889">
        <ele>1204.4000000000001</ele>
        <time>2024-11-24T13:26:18Z</time>
      </trkpt>
      <trkpt lat="45.923358332365751" lon="9.216733016073704">
        <ele>1204.95</ele>
        <time>2024-11-24T13:26:53Z</time>
      </trkpt>
      <trkpt lat="45.923323966562748" lon="9.216633774340153">
        <ele>1205.9100000000001</ele>
        <time>2024-11-24T13:27:25Z</time>
      </trkpt>
      <trkpt lat="45.923350201919675" lon="9.21658968552947">
        <ele>1204.78</ele>
        <time>2024-11-24T13:30:33Z</time>
      </trkpt>
      <trkpt lat="45.92336218804121" lon="9.21669814735651">
        <ele>1204.5799999999999</ele>
        <time>2024-11-24T13:30:50Z</time>
      </trkpt>
      <trkpt lat="45.923388591036201" lon="9.216826306656003">
        <ele>1203.97</ele>
        <time>2024-11-24T13:31:03Z</time>
      </trkpt>
      <trkpt lat="45.923413569107652" lon="9.216945664957166">
        <ele>1202.5699999999999</ele>
        <time>2024-11-24T13:31:20Z</time>
      </trkpt>
      <trkpt lat="45.923478864133358" lon="9.217042224481702">
        <ele>1200.26</ele>
        <time>2024-11-24T13:31:41Z</time>
      </trkpt>
      <trkpt lat="45.923552708700299" lon="9.217074830085039">
        <ele>1197.97</ele>
        <time>2024-11-24T13:32:03Z</time>
      </trkpt>
      <trkpt lat="45.923642562702298" lon="9.217047085985541">
        <ele>1196.5799999999999</ele>
        <time>2024-11-24T13:32:18Z</time>
      </trkpt>
      <trkpt lat="45.923736188560724" lon="9.217042308300734">
        <ele>1195.7</ele>
        <time>2024-11-24T13:32:28Z</time>
      </trkpt>
      <trkpt lat="45.923831909894943" lon="9.217074327170849">
        <ele>1195.03</ele>
        <time>2024-11-24T13:32:39Z</time>
      </trkpt>
      <trkpt lat="45.92391581274569" lon="9.217144651338458">
        <ele>1194.1199999999999</ele>
        <time>2024-11-24T13:32:51Z</time>
      </trkpt>
      <trkpt lat="45.923991585150361" lon="9.217223776504397">
        <ele>1193.5699999999999</ele>
        <time>2024-11-24T13:33:02Z</time>
      </trkpt>
      <trkpt lat="45.924071883782744" lon="9.21729720197618">
        <ele>1192.75</ele>
        <time>2024-11-24T13:33:15Z</time>
      </trkpt>
      <trkpt lat="45.924154948443174" lon="9.217362329363823">
        <ele>1191.9000000000001</ele>
        <time>2024-11-24T13:33:25Z</time>
      </trkpt>
      <trkpt lat="45.924241365864873" lon="9.217398036271334">
        <ele>1190.6300000000001</ele>
        <time>2024-11-24T13:33:35Z</time>
      </trkpt>
      <trkpt lat="45.924326358363032" lon="9.217431312426925">
        <ele>1189.5799999999999</ele>
        <time>2024-11-24T13:33:45Z</time>
      </trkpt>
      <trkpt lat="45.924409674480557" lon="9.217485543340445">
        <ele>1188.4400000000001</ele>
        <time>2024-11-24T13:33:56Z</time>
      </trkpt>
      <trkpt lat="45.924482261762023" lon="9.217576067894697">
        <ele>1187.71</ele>
        <time>2024-11-24T13:34:07Z</time>
      </trkpt>
      <trkpt lat="45.924562308937311" lon="9.217665670439601">
        <ele>1187.3299999999999</ele>
        <time>2024-11-24T13:34:17Z</time>
      </trkpt>
      <trkpt lat="45.924636824056506" lon="9.217782430350781">
        <ele>1185.95</ele>
        <time>2024-11-24T13:34:27Z</time>
      </trkpt>
      <trkpt lat="45.924712009727955" lon="9.217860046774149">
        <ele>1185.26</ele>
        <time>2024-11-24T13:34:38Z</time>
      </trkpt>
      <trkpt lat="45.924793817102909" lon="9.217924671247602">
        <ele>1183.99</ele>
        <time>2024-11-24T13:34:47Z</time>
      </trkpt>
      <trkpt lat="45.924875373020768" lon="9.217969346791506">
        <ele>1183.0999999999999</ele>
        <time>2024-11-24T13:34:55Z</time>
      </trkpt>
      <trkpt lat="45.92496095225215" lon="9.21798812225461">
        <ele>1182.23</ele>
        <time>2024-11-24T13:35:03Z</time>
      </trkpt>
      <trkpt lat="45.925051728263497" lon="9.217991475015879">
        <ele>1180.3099999999999</ele>
        <time>2024-11-24T13:35:12Z</time>
      </trkpt>
      <trkpt lat="45.925147701054811" lon="9.217997258529067">
        <ele>1178.3099999999999</ele>
        <time>2024-11-24T13:35:21Z</time>
      </trkpt>
      <trkpt lat="45.925245014950633" lon="9.218002874404192">
        <ele>1177.3399999999999</ele>
        <time>2024-11-24T13:35:30Z</time>
      </trkpt>
      <trkpt lat="45.925338221713901" lon="9.218034138903022">
        <ele>1176.95</ele>
        <time>2024-11-24T13:35:40Z</time>
      </trkpt>
      <trkpt lat="45.925438804551959" lon="9.218083843588829">
        <ele>1176.4400000000001</ele>
        <time>2024-11-24T13:35:51Z</time>
      </trkpt>
      <trkpt lat="45.925532598048449" lon="9.218121059238911">
        <ele>1174.95</ele>
        <time>2024-11-24T13:36:03Z</time>
      </trkpt>
      <trkpt lat="45.925622954964638" lon="9.218164477497339">
        <ele>1173.95</ele>
        <time>2024-11-24T13:36:13Z</time>
      </trkpt>
      <trkpt lat="45.925603928044438" lon="9.21828375197947">
        <ele>1173.1600000000001</ele>
        <time>2024-11-24T13:36:23Z</time>
      </trkpt>
      <trkpt lat="45.925513990223408" lon="9.218327337875962">
        <ele>1171.98</ele>
        <time>2024-11-24T13:36:34Z</time>
      </trkpt>
      <trkpt lat="45.925414999946952" lon="9.218382658436894">
        <ele>1170.71</ele>
        <time>2024-11-24T13:36:45Z</time>
      </trkpt>
      <trkpt lat="45.925329253077507" lon="9.218436805531383">
        <ele>1169.5699999999999</ele>
        <time>2024-11-24T13:36:58Z</time>
      </trkpt>
      <trkpt lat="45.925245601683855" lon="9.218504531309009">
        <ele>1167.8299999999999</ele>
        <time>2024-11-24T13:37:10Z</time>
      </trkpt>
      <trkpt lat="45.925156837329268" lon="9.218574604019523">
        <ele>1165.78</ele>
        <time>2024-11-24T13:37:21Z</time>
      </trkpt>
      <trkpt lat="45.925077376887202" lon="9.218650879338384">
        <ele>1164.03</ele>
        <time>2024-11-24T13:37:30Z</time>
      </trkpt>
      <trkpt lat="45.925007471814752" lon="9.21872841194272">
        <ele>1162.8699999999999</ele>
        <time>2024-11-24T13:37:40Z</time>
      </trkpt>
      <trkpt lat="45.924928681924939" lon="9.218795886263251">
        <ele>1161.8399999999999</ele>
        <time>2024-11-24T13:37:49Z</time>
      </trkpt>
      <trkpt lat="45.924859698861837" lon="9.21889990568161">
        <ele>1160.3900000000001</ele>
        <time>2024-11-24T13:37:58Z</time>
      </trkpt>
      <trkpt lat="45.924770263954997" lon="9.21894290484488">
        <ele>1159.1099999999999</ele>
        <time>2024-11-24T13:38:08Z</time>
      </trkpt>
      <trkpt lat="45.924676805734634" lon="9.218926979228854">
        <ele>1156.6600000000001</ele>
        <time>2024-11-24T13:38:17Z</time>
      </trkpt>
      <trkpt lat="45.924615785479546" lon="9.219024712219834">
        <ele>1152.78</ele>
        <time>2024-11-24T13:38:28Z</time>
      </trkpt>
      <trkpt lat="45.924547808244824" lon="9.219159074127674">
        <ele>1149.3800000000001</ele>
        <time>2024-11-24T13:38:40Z</time>
      </trkpt>
      <trkpt lat="45.924439430236816" lon="9.219271391630173">
        <ele>1146.6500000000001</ele>
        <time>2024-11-24T13:38:51Z</time>
      </trkpt>
      <trkpt lat="45.924357119947672" lon="9.21936065889895">
        <ele>1143.27</ele>
        <time>2024-11-24T13:39:01Z</time>
      </trkpt>
      <trkpt lat="45.924263577908278" lon="9.219468701630831">
        <ele>1140.1700000000001</ele>
        <time>2024-11-24T13:39:11Z</time>
      </trkpt>
      <trkpt lat="45.924158301204443" lon="9.219492003321648">
        <ele>1137.5699999999999</ele>
        <time>2024-11-24T13:39:21Z</time>
      </trkpt>
      <trkpt lat="45.924053443595767" lon="9.219539612531662">
        <ele>1134.7</ele>
        <time>2024-11-24T13:39:31Z</time>
      </trkpt>
      <trkpt lat="45.923959817737341" lon="9.219592334702611">
        <ele>1132.21</ele>
        <time>2024-11-24T13:39:41Z</time>
      </trkpt>
      <trkpt lat="45.923865353688598" lon="9.219658300280571">
        <ele>1130</ele>
        <time>2024-11-24T13:39:51Z</time>
      </trkpt>
      <trkpt lat="45.923770051449537" lon="9.219717476516962">
        <ele>1128.0899999999999</ele>
        <time>2024-11-24T13:40:01Z</time>
      </trkpt>
      <trkpt lat="45.923667373135686" lon="9.219786459580064">
        <ele>1127.01</ele>
        <time>2024-11-24T13:40:10Z</time>
      </trkpt>
      <trkpt lat="45.923576764762402" lon="9.219868099316955">
        <ele>1125.6800000000001</ele>
        <time>2024-11-24T13:40:18Z</time>
      </trkpt>
      <trkpt lat="45.923487329855561" lon="9.219924174249172">
        <ele>1124.4000000000001</ele>
        <time>2024-11-24T13:40:26Z</time>
      </trkpt>
      <trkpt lat="45.923398565500975" lon="9.219969101250172">
        <ele>1123.0899999999999</ele>
        <time>2024-11-24T13:40:35Z</time>
      </trkpt>
      <trkpt lat="45.923294210806489" lon="9.220023583620787">
        <ele>1121.3199999999999</ele>
        <time>2024-11-24T13:40:45Z</time>
      </trkpt>
      <trkpt lat="45.923200668767095" lon="9.220005730167031">
        <ele>1119.96</ele>
        <time>2024-11-24T13:40:54Z</time>
      </trkpt>
      <trkpt lat="45.923082232475281" lon="9.220050992444158">
        <ele>1119</ele>
        <time>2024-11-24T13:41:05Z</time>
      </trkpt>
      <trkpt lat="45.922974776476622" lon="9.220094243064523">
        <ele>1117.02</ele>
        <time>2024-11-24T13:41:15Z</time>
      </trkpt>
      <trkpt lat="45.922875618562102" lon="9.220179403200746">
        <ele>1113.97</ele>
        <time>2024-11-24T13:41:26Z</time>
      </trkpt>
      <trkpt lat="45.922824321314692" lon="9.220335306599736">
        <ele>1112.53</ele>
        <time>2024-11-24T13:41:35Z</time>
      </trkpt>
      <trkpt lat="45.92276263050735" lon="9.220475032925606">
        <ele>1110.5</ele>
        <time>2024-11-24T13:41:44Z</time>
      </trkpt>
      <trkpt lat="45.922678895294666" lon="9.220570335164666">
        <ele>1107.9300000000001</ele>
        <time>2024-11-24T13:41:53Z</time>
      </trkpt>
      <trkpt lat="45.922650648280978" lon="9.220703942701221">
        <ele>1105.6500000000001</ele>
        <time>2024-11-24T13:42:02Z</time>
      </trkpt>
      <trkpt lat="45.92260723002255" lon="9.220830760896206">
        <ele>1104.5599999999999</ele>
        <time>2024-11-24T13:42:11Z</time>
      </trkpt>
      <trkpt lat="45.922554088756442" lon="9.220943916589022">
        <ele>1103.9400000000001</ele>
        <time>2024-11-24T13:42:20Z</time>
      </trkpt>
      <trkpt lat="45.922494325786829" lon="9.221060760319233">
        <ele>1102.6300000000001</ele>
        <time>2024-11-24T13:42:29Z</time>
      </trkpt>
      <trkpt lat="45.922420229762793" lon="9.221176598221064">
        <ele>1100.5699999999999</ele>
        <time>2024-11-24T13:42:38Z</time>
      </trkpt>
      <trkpt lat="45.922324256971478" lon="9.221253041177988">
        <ele>1100.02</ele>
        <time>2024-11-24T13:42:47Z</time>
      </trkpt>
      <trkpt lat="45.92222660779953" lon="9.22131909057498">
        <ele>1099.97</ele>
        <time>2024-11-24T13:42:56Z</time>
      </trkpt>
      <trkpt lat="45.922151254490018" lon="9.221393102779985">
        <ele>1099.9300000000001</ele>
        <time>2024-11-24T13:43:05Z</time>
      </trkpt>
      <trkpt lat="45.922070704400539" lon="9.22146325930953">
        <ele>1100.3</ele>
        <time>2024-11-24T13:43:17Z</time>
      </trkpt>
      <trkpt lat="45.922012617811561" lon="9.221562333405018">
        <ele>1101.0799999999999</ele>
        <time>2024-11-24T13:43:27Z</time>
      </trkpt>
      <trkpt lat="45.921936091035604" lon="9.221665346994996">
        <ele>1101.6900000000001</ele>
        <time>2024-11-24T13:43:36Z</time>
      </trkpt>
      <trkpt lat="45.921863503754139" lon="9.221789231523871">
        <ele>1102.1199999999999</ele>
        <time>2024-11-24T13:43:45Z</time>
      </trkpt>
      <trkpt lat="45.921806255355477" lon="9.221920911222696">
        <ele>1102.7</ele>
        <time>2024-11-24T13:43:54Z</time>
      </trkpt>
      <trkpt lat="45.921746576204896" lon="9.222051333636046">
        <ele>1103.24</ele>
        <time>2024-11-24T13:44:03Z</time>
      </trkpt>
      <trkpt lat="45.92168957926333" lon="9.222169267013669">
        <ele>1104.02</ele>
        <time>2024-11-24T13:44:12Z</time>
      </trkpt>
      <trkpt lat="45.921623781323433" lon="9.222302120178938">
        <ele>1105.04</ele>
        <time>2024-11-24T13:44:21Z</time>
      </trkpt>
      <trkpt lat="45.921573154628277" lon="9.222426759079099">
        <ele>1105.47</ele>
        <time>2024-11-24T13:44:29Z</time>
      </trkpt>
      <trkpt lat="45.921533005312085" lon="9.222551230341196">
        <ele>1106.27</ele>
        <time>2024-11-24T13:44:37Z</time>
      </trkpt>
      <trkpt lat="45.921488916501403" lon="9.222669079899788">
        <ele>1106.98</ele>
        <time>2024-11-24T13:44:45Z</time>
      </trkpt>
      <trkpt lat="45.921442564576864" lon="9.222784582525492">
        <ele>1107.6400000000001</ele>
        <time>2024-11-24T13:44:53Z</time>
      </trkpt>
      <trkpt lat="45.921367295086384" lon="9.222867311909795">
        <ele>1107.8</ele>
        <time>2024-11-24T13:45:01Z</time>
      </trkpt>
      <trkpt lat="45.921274591237307" lon="9.222933277487755">
        <ele>1107.8399999999999</ele>
        <time>2024-11-24T13:45:09Z</time>
      </trkpt>
      <trkpt lat="45.921219605952501" lon="9.22305615618825">
        <ele>1107.72</ele>
        <time>2024-11-24T13:45:17Z</time>
      </trkpt>
      <trkpt lat="45.921230921521783" lon="9.223189176991582">
        <ele>1107.78</ele>
        <time>2024-11-24T13:45:25Z</time>
      </trkpt>
      <trkpt lat="45.921255145221949" lon="9.223320353776217">
        <ele>1107.54</ele>
        <time>2024-11-24T13:45:33Z</time>
      </trkpt>
      <trkpt lat="45.921276854351163" lon="9.223472317680717">
        <ele>1107.3699999999999</ele>
        <time>2024-11-24T13:45:41Z</time>
      </trkpt>
      <trkpt lat="45.921289008110762" lon="9.223624700680375">
        <ele>1107.01</ele>
        <time>2024-11-24T13:45:49Z</time>
      </trkpt>
      <trkpt lat="45.921291690319777" lon="9.223774988204241">
        <ele>1106.3699999999999</ele>
        <time>2024-11-24T13:45:57Z</time>
      </trkpt>
      <trkpt lat="45.921300407499075" lon="9.223923934623599">
        <ele>1105.6700000000001</ele>
        <time>2024-11-24T13:46:05Z</time>
      </trkpt>
      <trkpt lat="45.921324715018272" lon="9.224056620150805">
        <ele>1104.77</ele>
        <time>2024-11-24T13:46:13Z</time>
      </trkpt>
      <trkpt lat="45.921336030587554" lon="9.224195927381516">
        <ele>1103.4100000000001</ele>
        <time>2024-11-24T13:46:22Z</time>
      </trkpt>
      <trkpt lat="45.921364612877369" lon="9.224334228783846">
        <ele>1102.28</ele>
        <time>2024-11-24T13:46:31Z</time>
      </trkpt>
      <trkpt lat="45.921442983672023" lon="9.224462639540434">
        <ele>1100.72</ele>
        <time>2024-11-24T13:46:41Z</time>
      </trkpt>
      <trkpt lat="45.921537447720766" lon="9.224567413330078">
        <ele>1099.8</ele>
        <time>2024-11-24T13:46:51Z</time>
      </trkpt>
      <trkpt lat="45.921600814908743" lon="9.224691716954112">
        <ele>1099.04</ele>
        <time>2024-11-24T13:47:01Z</time>
      </trkpt>
      <trkpt lat="45.921656638383865" lon="9.224808476865292">
        <ele>1098.9300000000001</ele>
        <time>2024-11-24T13:47:10Z</time>
      </trkpt>
      <trkpt lat="45.92173408716917" lon="9.224921464920044">
        <ele>1098.3299999999999</ele>
        <time>2024-11-24T13:47:19Z</time>
      </trkpt>
      <trkpt lat="45.921798124909401" lon="9.225022466853261">
        <ele>1097.9300000000001</ele>
        <time>2024-11-24T13:47:28Z</time>
      </trkpt>
      <trkpt lat="45.921878423541784" lon="9.225126737728715">
        <ele>1097.55</ele>
        <time>2024-11-24T13:47:37Z</time>
      </trkpt>
      <trkpt lat="45.921946233138442" lon="9.225236037746072">
        <ele>1096.9200000000001</ele>
        <time>2024-11-24T13:47:46Z</time>
      </trkpt>
      <trkpt lat="45.921975653618574" lon="9.225363610312343">
        <ele>1096.45</ele>
        <time>2024-11-24T13:47:55Z</time>
      </trkpt>
      <trkpt lat="45.922018401324749" lon="9.225555220618844">
        <ele>1095.55</ele>
        <time>2024-11-24T13:48:07Z</time>
      </trkpt>
      <trkpt lat="45.922156870365143" lon="9.225631831213832">
        <ele>1095.47</ele>
        <time>2024-11-24T13:48:16Z</time>
      </trkpt>
      <trkpt lat="45.922245383262634" lon="9.225702239200473">
        <ele>1095.3599999999999</ele>
        <time>2024-11-24T13:48:25Z</time>
      </trkpt>
      <trkpt lat="45.922324256971478" lon="9.225804833695293">
        <ele>1095.0599999999999</ele>
        <time>2024-11-24T13:48:37Z</time>
      </trkpt>
      <trkpt lat="45.922400448471308" lon="9.22594103962183">
        <ele>1095.0599999999999</ele>
        <time>2024-11-24T13:48:47Z</time>
      </trkpt>
      <trkpt lat="45.922424085438251" lon="9.226119741797447">
        <ele>1095.2</ele>
        <time>2024-11-24T13:48:58Z</time>
      </trkpt>
      <trkpt lat="45.922436574473977" lon="9.226284865289927">
        <ele>1095.0799999999999</ele>
        <time>2024-11-24T13:49:07Z</time>
      </trkpt>
      <trkpt lat="45.92245384119451" lon="9.226426351815462">
        <ele>1095.0799999999999</ele>
        <time>2024-11-24T13:49:16Z</time>
      </trkpt>
      <trkpt lat="45.92245819978416" lon="9.226582925766707">
        <ele>1094.8800000000001</ele>
        <time>2024-11-24T13:49:25Z</time>
      </trkpt>
      <trkpt lat="45.922421738505363" lon="9.226699434220791">
        <ele>1095.0999999999999</ele>
        <time>2024-11-24T13:49:34Z</time>
      </trkpt>
      <trkpt lat="45.922395586967468" lon="9.226836059242487">
        <ele>1095.23</ele>
        <time>2024-11-24T13:49:43Z</time>
      </trkpt>
      <trkpt lat="45.922395000234246" lon="9.227000428363681">
        <ele>1095.6099999999999</ele>
        <time>2024-11-24T13:49:52Z</time>
      </trkpt>
      <trkpt lat="45.922374129295349" lon="9.227160438895226">
        <ele>1095.5699999999999</ele>
        <time>2024-11-24T13:50:02Z</time>
      </trkpt>
      <trkpt lat="45.922351414337754" lon="9.227311816066504">
        <ele>1095.5699999999999</ele>
        <time>2024-11-24T13:50:11Z</time>
      </trkpt>
      <trkpt lat="45.92233900912106" lon="9.227452883496881">
        <ele>1095.8800000000001</ele>
        <time>2024-11-24T13:50:20Z</time>
      </trkpt>
      <trkpt lat="45.922300200909376" lon="9.227589005604386">
        <ele>1095.9300000000001</ele>
        <time>2024-11-24T13:50:28Z</time>
      </trkpt>
      <trkpt lat="45.922290561720729" lon="9.227726804092526">
        <ele>1096.0599999999999</ele>
        <time>2024-11-24T13:50:36Z</time>
      </trkpt>
      <trkpt lat="45.922272792086005" lon="9.227880863472819">
        <ele>1096.3800000000001</ele>
        <time>2024-11-24T13:50:46Z</time>
      </trkpt>
      <trkpt lat="45.922232139855623" lon="9.228071719408035">
        <ele>1096.29</ele>
        <time>2024-11-24T13:50:56Z</time>
      </trkpt>
      <trkpt lat="45.92219777405262" lon="9.228218737989664">
        <ele>1096.45</ele>
        <time>2024-11-24T13:51:04Z</time>
      </trkpt>
      <trkpt lat="45.922200623899698" lon="9.228382185101509">
        <ele>1096.55</ele>
        <time>2024-11-24T13:51:12Z</time>
      </trkpt>
      <trkpt lat="45.922185201197863" lon="9.228520318865776">
        <ele>1096.71</ele>
        <time>2024-11-24T13:51:20Z</time>
      </trkpt>
      <trkpt lat="45.922142537310719" lon="9.228634815663099">
        <ele>1096.8499999999999</ele>
        <time>2024-11-24T13:51:28Z</time>
      </trkpt>
      <trkpt lat="45.922103645280004" lon="9.228752916678786">
        <ele>1097.04</ele>
        <time>2024-11-24T13:51:37Z</time>
      </trkpt>
      <trkpt lat="45.922049079090357" lon="9.228882919996977">
        <ele>1096.9100000000001</ele>
        <time>2024-11-24T13:51:46Z</time>
      </trkpt>
      <trkpt lat="45.92197397723794" lon="9.228985011577606">
        <ele>1096.78</ele>
        <time>2024-11-24T13:51:55Z</time>
      </trkpt>
      <trkpt lat="45.921889906749129" lon="9.22909221611917">
        <ele>1096.6500000000001</ele>
        <time>2024-11-24T13:52:05Z</time>
      </trkpt>
      <trkpt lat="45.921792425215244" lon="9.22923001460731">
        <ele>1096.76</ele>
        <time>2024-11-24T13:52:14Z</time>
      </trkpt>
      <trkpt lat="45.921784965321422" lon="9.229396563023329">
        <ele>1096.9000000000001</ele>
        <time>2024-11-24T13:52:22Z</time>
      </trkpt>
      <trkpt lat="45.921786641702056" lon="9.229546263813973">
        <ele>1096.73</ele>
        <time>2024-11-24T13:52:30Z</time>
      </trkpt>
      <trkpt lat="45.921756802126765" lon="9.229703592136502">
        <ele>1096.0999999999999</ele>
        <time>2024-11-24T13:52:39Z</time>
      </trkpt>
      <trkpt lat="45.9217428881675" lon="9.229857651516795">
        <ele>1095.47</ele>
        <time>2024-11-24T13:52:48Z</time>
      </trkpt>
      <trkpt lat="45.921875741332769" lon="9.229978434741497">
        <ele>1095.3499999999999</ele>
        <time>2024-11-24T13:53:00Z</time>
      </trkpt>
      <trkpt lat="45.922028040513396" lon="9.229909619316459">
        <ele>1095.4000000000001</ele>
        <time>2024-11-24T13:53:11Z</time>
      </trkpt>
      <trkpt lat="45.922142704948783" lon="9.229793529957533">
        <ele>1095.1700000000001</ele>
        <time>2024-11-24T13:53:21Z</time>
      </trkpt>
      <trkpt lat="45.922253094613552" lon="9.229694874957204">
        <ele>1094.8499999999999</ele>
        <time>2024-11-24T13:53:30Z</time>
      </trkpt>
      <trkpt lat="45.922339763492346" lon="9.229620024561882">
        <ele>1094.6800000000001</ele>
        <time>2024-11-24T13:53:38Z</time>
      </trkpt>
      <trkpt lat="45.92243229970336" lon="9.229629496112466">
        <ele>1094.5999999999999</ele>
        <time>2024-11-24T13:53:46Z</time>
      </trkpt>
      <trkpt lat="45.922526679933071" lon="9.229637542739511">
        <ele>1094.24</ele>
        <time>2024-11-24T13:53:54Z</time>
      </trkpt>
      <trkpt lat="45.922633465379477" lon="9.229668388143182">
        <ele>1094.02</ele>
        <time>2024-11-24T13:54:02Z</time>
      </trkpt>
      <trkpt lat="45.922729941084981" lon="9.229720942676067">
        <ele>1093.6700000000001</ele>
        <time>2024-11-24T13:54:11Z</time>
      </trkpt>
      <trkpt lat="45.922828679904342" lon="9.229778945446014">
        <ele>1093.1400000000001</ele>
        <time>2024-11-24T13:54:19Z</time>
      </trkpt>
      <trkpt lat="45.922904284670949" lon="9.229836780577898">
        <ele>1093.02</ele>
        <time>2024-11-24T13:54:29Z</time>
      </trkpt>
      <trkpt lat="45.922854915261269" lon="9.229887491092086">
        <ele>1093.26</ele>
        <time>2024-11-24T13:54:54Z</time>
      </trkpt>
      <trkpt lat="45.922893304377794" lon="9.229950942099094">
        <ele>1093.48</ele>
        <time>2024-11-24T13:56:25Z</time>
      </trkpt>
      <trkpt lat="45.922940075397491" lon="9.230077844113112">
        <ele>1095.02</ele>
        <time>2024-11-24T13:56:36Z</time>
      </trkpt>
      <trkpt lat="45.923024145886302" lon="9.230142049491406">
        <ele>1096.9000000000001</ele>
        <time>2024-11-24T13:56:48Z</time>
      </trkpt>
      <trkpt lat="45.923152808099985" lon="9.230186305940151">
        <ele>1098.8900000000001</ele>
        <time>2024-11-24T13:57:02Z</time>
      </trkpt>
      <trkpt lat="45.923269735649228" lon="9.230239195749164">
        <ele>1100.54</ele>
        <time>2024-11-24T13:57:14Z</time>
      </trkpt>
      <trkpt lat="45.923390351235867" lon="9.230345562100411">
        <ele>1102.22</ele>
        <time>2024-11-24T13:57:26Z</time>
      </trkpt>
      <trkpt lat="45.923499064520001" lon="9.230395099148154">
        <ele>1103.3699999999999</ele>
        <time>2024-11-24T13:57:36Z</time>
      </trkpt>
      <trkpt lat="45.923589086160064" lon="9.230466010048986">
        <ele>1104.5599999999999</ele>
        <time>2024-11-24T13:57:46Z</time>
      </trkpt>
      <trkpt lat="45.923672234639525" lon="9.230539351701737">
        <ele>1105.5</ele>
        <time>2024-11-24T13:57:55Z</time>
      </trkpt>
      <trkpt lat="45.923631079494953" lon="9.230624763295054">
        <ele>1106.3099999999999</ele>
        <time>2024-11-24T13:58:05Z</time>
      </trkpt>
      <trkpt lat="45.923533597961068" lon="9.23060548491776">
        <ele>1106.6500000000001</ele>
        <time>2024-11-24T13:58:24Z</time>
      </trkpt>
      <trkpt lat="45.923451874405146" lon="9.23053071834147">
        <ele>1106.21</ele>
        <time>2024-11-24T13:58:54Z</time>
      </trkpt>
    </trkseg>
  </trk>

</gpx>